<?xml version="1.0" encoding="UTF-8" standalone="no" ?>
<gpx xmlns="http://www.topografix.com/GPX/1/1" xmlns:xsi="http://www.w3.org/2001/XMLSchema-instance" xsi:schemaLocation="http://www.topografix.com/GPX/1/1 http://www.topografix.com/GPX/1/1/gpx.xsd" version="1.1" creator="VisuGPX - https://www.visugpx.com">
  <metadata>
    <name>Refuge du Merlet - Berlanche,Merlet,Passoire</name>
    <desc><![CDATA[Rando en 3j. avec 2 nuits au Refuge du Merlet.
J2 en aval dans l'optique de ramener du bois.
Orientations Est et Nord pour profiter des meilleures conditions de neige.
]]></desc>
  </metadata>
  <trk>
    <name><![CDATA[J3 - Brèche de la Passoire - Col de la Colombière]]></name>
    <trkseg>
      <trkpt lat="45.32713" lon="6.16947">
        <ele>1940</ele>
        <time>2020-02-09T09:41:42.000Z</time>
      </trkpt>
      <trkpt lat="45.32709" lon="6.16953">
        <ele>1928</ele>
        <time>2020-02-09T09:41:49.972Z</time>
      </trkpt>
      <trkpt lat="45.327" lon="6.16958">
        <ele>1931</ele>
        <time>2020-02-09T09:42:06.991Z</time>
      </trkpt>
      <trkpt lat="45.32691" lon="6.16958">
        <ele>1933</ele>
        <time>2020-02-09T09:42:18.002Z</time>
      </trkpt>
      <trkpt lat="45.32684" lon="6.16967">
        <ele>1935</ele>
        <time>2020-02-09T09:42:34.992Z</time>
      </trkpt>
      <trkpt lat="45.32677" lon="6.16975">
        <ele>1938</ele>
        <time>2020-02-09T09:42:54.987Z</time>
      </trkpt>
      <trkpt lat="45.32668" lon="6.16978">
        <ele>1941</ele>
        <time>2020-02-09T09:43:18.988Z</time>
      </trkpt>
      <trkpt lat="45.3266" lon="6.16985">
        <ele>1944</ele>
        <time>2020-02-09T09:43:35.987Z</time>
      </trkpt>
      <trkpt lat="45.3265" lon="6.16986">
        <ele>1945</ele>
        <time>2020-02-09T09:43:46.987Z</time>
      </trkpt>
      <trkpt lat="45.32641" lon="6.1699">
        <ele>1947</ele>
        <time>2020-02-09T09:43:59.076Z</time>
      </trkpt>
      <trkpt lat="45.32632" lon="6.16988">
        <ele>1949</ele>
        <time>2020-02-09T09:44:16.001Z</time>
      </trkpt>
      <trkpt lat="45.32623" lon="6.16992">
        <ele>1950</ele>
        <time>2020-02-09T09:44:33.001Z</time>
      </trkpt>
      <trkpt lat="45.32614" lon="6.16995">
        <ele>1952</ele>
        <time>2020-02-09T09:44:44.991Z</time>
      </trkpt>
      <trkpt lat="45.32606" lon="6.17002">
        <ele>1954</ele>
        <time>2020-02-09T09:44:58.001Z</time>
      </trkpt>
      <trkpt lat="45.32597" lon="6.17005">
        <ele>1955</ele>
        <time>2020-02-09T09:45:14.001Z</time>
      </trkpt>
      <trkpt lat="45.32587" lon="6.17005">
        <ele>1957</ele>
        <time>2020-02-09T09:45:29.991Z</time>
      </trkpt>
      <trkpt lat="45.32579" lon="6.17009">
        <ele>1959</ele>
        <time>2020-02-09T09:45:47.001Z</time>
      </trkpt>
      <trkpt lat="45.32569" lon="6.1701">
        <ele>1962</ele>
        <time>2020-02-09T09:46:03.001Z</time>
      </trkpt>
      <trkpt lat="45.32561" lon="6.17016">
        <ele>1965</ele>
        <time>2020-02-09T09:46:22.991Z</time>
      </trkpt>
      <trkpt lat="45.32553" lon="6.17022">
        <ele>1967</ele>
        <time>2020-02-09T09:46:43.001Z</time>
      </trkpt>
      <trkpt lat="45.32543" lon="6.17026">
        <ele>1969</ele>
        <time>2020-02-09T09:47:00.001Z</time>
      </trkpt>
      <trkpt lat="45.32534" lon="6.17027">
        <ele>1970</ele>
        <time>2020-02-09T09:47:18.001Z</time>
      </trkpt>
      <trkpt lat="45.32525" lon="6.17032">
        <ele>1974</ele>
        <time>2020-02-09T09:47:39.001Z</time>
      </trkpt>
      <trkpt lat="45.32518" lon="6.17041">
        <ele>1976</ele>
        <time>2020-02-09T09:48:24.020Z</time>
      </trkpt>
      <trkpt lat="45.32509" lon="6.17046">
        <ele>1979</ele>
        <time>2020-02-09T09:49:23.001Z</time>
      </trkpt>
      <trkpt lat="45.325" lon="6.1705">
        <ele>1982</ele>
        <time>2020-02-09T09:49:40.016Z</time>
      </trkpt>
      <trkpt lat="45.32492" lon="6.17054">
        <ele>1984.3859968</ele>
        <time>2020-02-09T09:49:59.016Z</time>
      </trkpt>
      <trkpt lat="45.32483" lon="6.17057">
        <ele>1989</ele>
        <time>2020-02-09T09:50:12.990Z</time>
      </trkpt>
      <trkpt lat="45.32474" lon="6.17061">
        <ele>1991</ele>
        <time>2020-02-09T09:50:30.991Z</time>
      </trkpt>
      <trkpt lat="45.32464" lon="6.17067">
        <ele>1993</ele>
        <time>2020-02-09T09:50:52.991Z</time>
      </trkpt>
      <trkpt lat="45.32456" lon="6.17074">
        <ele>1996</ele>
        <time>2020-02-09T09:51:11.991Z</time>
      </trkpt>
      <trkpt lat="45.32447" lon="6.17078">
        <ele>1999</ele>
        <time>2020-02-09T09:51:34.026Z</time>
      </trkpt>
      <trkpt lat="45.32439" lon="6.17085">
        <ele>2002</ele>
        <time>2020-02-09T09:51:53.016Z</time>
      </trkpt>
      <trkpt lat="45.3243" lon="6.17088">
        <ele>2004</ele>
        <time>2020-02-09T09:52:09.991Z</time>
      </trkpt>
      <trkpt lat="45.32423" lon="6.17097">
        <ele>2006</ele>
        <time>2020-02-09T09:52:35.988Z</time>
      </trkpt>
      <trkpt lat="45.32415" lon="6.17104">
        <ele>2008</ele>
        <time>2020-02-09T09:52:50.959Z</time>
      </trkpt>
      <trkpt lat="45.3241" lon="6.17114">
        <ele>2011</ele>
        <time>2020-02-09T09:53:07.991Z</time>
      </trkpt>
      <trkpt lat="45.32405" lon="6.17126">
        <ele>2012.7180032</ele>
        <time>2020-02-09T09:53:26.989Z</time>
      </trkpt>
      <trkpt lat="45.32397" lon="6.1713">
        <ele>2017</ele>
        <time>2020-02-09T09:53:43.999Z</time>
      </trkpt>
      <trkpt lat="45.32388" lon="6.17134">
        <ele>2020</ele>
        <time>2020-02-09T09:54:45.989Z</time>
      </trkpt>
      <trkpt lat="45.32378" lon="6.17134">
        <ele>2027</ele>
        <time>2020-02-09T09:58:09.992Z</time>
      </trkpt>
      <trkpt lat="45.3237" lon="6.17141">
        <ele>2031</ele>
        <time>2020-02-09T09:58:29.988Z</time>
      </trkpt>
      <trkpt lat="45.32374" lon="6.17154">
        <ele>2034</ele>
        <time>2020-02-09T09:58:52.001Z</time>
      </trkpt>
      <trkpt lat="45.32373" lon="6.17167">
        <ele>2038</ele>
        <time>2020-02-09T09:59:20.992Z</time>
      </trkpt>
      <trkpt lat="45.32369" lon="6.17179">
        <ele>2042</ele>
        <time>2020-02-09T09:59:44.997Z</time>
      </trkpt>
      <trkpt lat="45.32374" lon="6.17191">
        <ele>2047</ele>
        <time>2020-02-09T10:00:20.003Z</time>
      </trkpt>
      <trkpt lat="45.32381" lon="6.172">
        <ele>2051</ele>
        <time>2020-02-09T10:00:42.987Z</time>
      </trkpt>
      <trkpt lat="45.32388" lon="6.17208">
        <ele>2053.067144529</ele>
        <time>2020-02-09T10:01:01.987Z</time>
      </trkpt>
      <trkpt lat="45.32395" lon="6.17217">
        <ele>2057</ele>
        <time>2020-02-09T10:01:25.002Z</time>
      </trkpt>
      <trkpt lat="45.32402" lon="6.17226">
        <ele>2058</ele>
        <time>2020-02-09T10:01:38.987Z</time>
      </trkpt>
      <trkpt lat="45.32406" lon="6.17238">
        <ele>2063</ele>
        <time>2020-02-09T10:02:06.972Z</time>
      </trkpt>
      <trkpt lat="45.32407" lon="6.17251">
        <ele>2067</ele>
        <time>2020-02-09T10:02:29.991Z</time>
      </trkpt>
      <trkpt lat="45.32412" lon="6.17263">
        <ele>2070</ele>
        <time>2020-02-09T10:02:47.987Z</time>
      </trkpt>
      <trkpt lat="45.32413" lon="6.17276">
        <ele>2073</ele>
        <time>2020-02-09T10:03:06.992Z</time>
      </trkpt>
      <trkpt lat="45.32418" lon="6.17287">
        <ele>2075.277692444</ele>
        <time>2020-02-09T10:03:29.991Z</time>
      </trkpt>
      <trkpt lat="45.3241" lon="6.17295">
        <ele>2078</ele>
        <time>2020-02-09T10:03:49.991Z</time>
      </trkpt>
      <trkpt lat="45.32402" lon="6.17302">
        <ele>2081</ele>
        <time>2020-02-09T10:04:08.001Z</time>
      </trkpt>
      <trkpt lat="45.32393" lon="6.17307">
        <ele>2083</ele>
        <time>2020-02-09T10:04:28.003Z</time>
      </trkpt>
      <trkpt lat="45.32385" lon="6.17314">
        <ele>2086</ele>
        <time>2020-02-09T10:04:48.986Z</time>
      </trkpt>
      <trkpt lat="45.32379" lon="6.17323">
        <ele>2089</ele>
        <time>2020-02-09T10:05:06.991Z</time>
      </trkpt>
      <trkpt lat="45.32371" lon="6.17329">
        <ele>2092</ele>
        <time>2020-02-09T10:05:23.991Z</time>
      </trkpt>
      <trkpt lat="45.32362" lon="6.17332">
        <ele>2096</ele>
        <time>2020-02-09T10:05:53.001Z</time>
      </trkpt>
      <trkpt lat="45.32368" lon="6.17342">
        <ele>2100.6440064</ele>
        <time>2020-02-09T10:06:22.986Z</time>
      </trkpt>
      <trkpt lat="45.32373" lon="6.17352">
        <ele>2103</ele>
        <time>2020-02-09T10:06:40.001Z</time>
      </trkpt>
      <trkpt lat="45.32375" lon="6.17365">
        <ele>2106</ele>
        <time>2020-02-09T10:07:01.991Z</time>
      </trkpt>
      <trkpt lat="45.32381" lon="6.17375">
        <ele>2110</ele>
        <time>2020-02-09T10:07:26.991Z</time>
      </trkpt>
      <trkpt lat="45.32372" lon="6.17381">
        <ele>2113.3499943529</ele>
        <time>2020-02-09T10:07:46.987Z</time>
      </trkpt>
      <trkpt lat="45.32364" lon="6.17387">
        <ele>2116</ele>
        <time>2020-02-09T10:08:12.001Z</time>
      </trkpt>
      <trkpt lat="45.32356" lon="6.17393">
        <ele>2120</ele>
        <time>2020-02-09T10:08:37.001Z</time>
      </trkpt>
      <trkpt lat="45.32359" lon="6.17405">
        <ele>2125</ele>
        <time>2020-02-09T10:09:07.001Z</time>
      </trkpt>
      <trkpt lat="45.32363" lon="6.17417">
        <ele>2128</ele>
        <time>2020-02-09T10:09:26.991Z</time>
      </trkpt>
      <trkpt lat="45.3237" lon="6.17425">
        <ele>2132</ele>
        <time>2020-02-09T10:09:54.001Z</time>
      </trkpt>
      <trkpt lat="45.32377" lon="6.17432">
        <ele>2134</ele>
        <time>2020-02-09T10:10:14.001Z</time>
      </trkpt>
      <trkpt lat="45.3237" lon="6.17441">
        <ele>2139</ele>
        <time>2020-02-09T10:10:41.987Z</time>
      </trkpt>
      <trkpt lat="45.32362" lon="6.17445">
        <ele>2142</ele>
        <time>2020-02-09T10:11:01.987Z</time>
      </trkpt>
      <trkpt lat="45.32353" lon="6.17447">
        <ele>2144</ele>
        <time>2020-02-09T10:11:12.017Z</time>
      </trkpt>
      <trkpt lat="45.32356" lon="6.17459">
        <ele>2150</ele>
        <time>2020-02-09T10:11:49.001Z</time>
      </trkpt>
      <trkpt lat="45.32362" lon="6.17468">
        <ele>2153</ele>
        <time>2020-02-09T10:12:09.961Z</time>
      </trkpt>
      <trkpt lat="45.3237" lon="6.17477">
        <ele>2156</ele>
        <time>2020-02-09T10:12:30.016Z</time>
      </trkpt>
      <trkpt lat="45.32377" lon="6.17485">
        <ele>2159</ele>
        <time>2020-02-09T10:12:50.991Z</time>
      </trkpt>
      <trkpt lat="45.32382" lon="6.17495">
        <ele>2163</ele>
        <time>2020-02-09T10:13:14.991Z</time>
      </trkpt>
      <trkpt lat="45.32385" lon="6.17508">
        <ele>2167</ele>
        <time>2020-02-09T10:13:45.991Z</time>
      </trkpt>
      <trkpt lat="45.32377" lon="6.17515">
        <ele>2171</ele>
        <time>2020-02-09T10:14:05.987Z</time>
      </trkpt>
      <trkpt lat="45.32371" lon="6.17524">
        <ele>2176</ele>
        <time>2020-02-09T10:14:37.991Z</time>
      </trkpt>
      <trkpt lat="45.32374" lon="6.17537">
        <ele>2178</ele>
        <time>2020-02-09T10:14:51.991Z</time>
      </trkpt>
      <trkpt lat="45.32381" lon="6.17546">
        <ele>2181</ele>
        <time>2020-02-09T10:15:12.991Z</time>
      </trkpt>
      <trkpt lat="45.3239" lon="6.1755">
        <ele>2185</ele>
        <time>2020-02-09T10:15:38.020Z</time>
      </trkpt>
      <trkpt lat="45.32398" lon="6.17555">
        <ele>2187</ele>
        <time>2020-02-09T10:15:55.991Z</time>
      </trkpt>
      <trkpt lat="45.32394" lon="6.17567">
        <ele>2190</ele>
        <time>2020-02-09T10:16:13.997Z</time>
      </trkpt>
      <trkpt lat="45.32388" lon="6.17578">
        <ele>2194</ele>
        <time>2020-02-09T10:16:36.988Z</time>
      </trkpt>
      <trkpt lat="45.32381" lon="6.17586">
        <ele>2198</ele>
        <time>2020-02-09T10:16:57.987Z</time>
      </trkpt>
      <trkpt lat="45.32372" lon="6.1759">
        <ele>2202</ele>
        <time>2020-02-09T10:17:27.988Z</time>
      </trkpt>
      <trkpt lat="45.32375" lon="6.17603">
        <ele>2207</ele>
        <time>2020-02-09T10:18:19.991Z</time>
      </trkpt>
      <trkpt lat="45.32383" lon="6.17609">
        <ele>2209</ele>
        <time>2020-02-09T10:18:32.988Z</time>
      </trkpt>
      <trkpt lat="45.32388" lon="6.17619">
        <ele>2211</ele>
        <time>2020-02-09T10:18:50.991Z</time>
      </trkpt>
      <trkpt lat="45.32395" lon="6.17629">
        <ele>2213</ele>
        <time>2020-02-09T10:19:07.018Z</time>
      </trkpt>
      <trkpt lat="45.32403" lon="6.17636">
        <ele>2215</ele>
        <time>2020-02-09T10:19:31.988Z</time>
      </trkpt>
      <trkpt lat="45.32407" lon="6.17648">
        <ele>2220</ele>
        <time>2020-02-09T10:20:42.960Z</time>
      </trkpt>
      <trkpt lat="45.32414" lon="6.17656">
        <ele>2224</ele>
        <time>2020-02-09T10:21:04.990Z</time>
      </trkpt>
      <trkpt lat="45.32422" lon="6.17649">
        <ele>2230</ele>
        <time>2020-02-09T10:22:47.001Z</time>
      </trkpt>
      <trkpt lat="45.32426" lon="6.17662">
        <ele>2235</ele>
        <time>2020-02-09T10:23:14.959Z</time>
      </trkpt>
      <trkpt lat="45.3243" lon="6.17675">
        <ele>2237</ele>
        <time>2020-02-09T10:23:29.001Z</time>
      </trkpt>
      <trkpt lat="45.3243" lon="6.17689">
        <ele>2240.273274447</ele>
        <time>2020-02-09T10:23:43.988Z</time>
      </trkpt>
      <trkpt lat="45.32424" lon="6.17699">
        <ele>2243</ele>
        <time>2020-02-09T10:24:01.988Z</time>
      </trkpt>
      <trkpt lat="45.32416" lon="6.17705">
        <ele>2246.7160064</ele>
        <time>2020-02-09T10:24:18.988Z</time>
      </trkpt>
      <trkpt lat="45.3242" lon="6.17718">
        <ele>2252</ele>
        <time>2020-02-09T10:24:59.990Z</time>
      </trkpt>
      <trkpt lat="45.32428" lon="6.17722">
        <ele>2255</ele>
        <time>2020-02-09T10:25:27.020Z</time>
      </trkpt>
      <trkpt lat="45.32428" lon="6.17736">
        <ele>2261</ele>
        <time>2020-02-09T10:26:18.988Z</time>
      </trkpt>
      <trkpt lat="45.32436" lon="6.17743">
        <ele>2268</ele>
        <time>2020-02-09T10:27:59.970Z</time>
      </trkpt>
      <trkpt lat="45.32434" lon="6.17756">
        <ele>2276</ele>
        <time>2020-02-09T10:29:34.974Z</time>
      </trkpt>
      <trkpt lat="45.32426" lon="6.17762">
        <ele>2279</ele>
        <time>2020-02-09T10:30:12.959Z</time>
      </trkpt>
      <trkpt lat="45.32417" lon="6.17763">
        <ele>2283</ele>
        <time>2020-02-09T10:30:57.990Z</time>
      </trkpt>
      <trkpt lat="45.32424" lon="6.17771">
        <ele>2285</ele>
        <time>2020-02-09T10:31:52.988Z</time>
      </trkpt>
      <trkpt lat="45.32432" lon="6.17778">
        <ele>2287</ele>
        <time>2020-02-09T10:32:07.989Z</time>
      </trkpt>
      <trkpt lat="45.3244" lon="6.17784">
        <ele>2291</ele>
        <time>2020-02-09T10:32:25.019Z</time>
      </trkpt>
      <trkpt lat="45.32443" lon="6.17796">
        <ele>2293.3590016</ele>
        <time>2020-02-09T10:32:53.989Z</time>
      </trkpt>
      <trkpt lat="45.32434" lon="6.17798">
        <ele>2295</ele>
        <time>2020-02-09T10:33:51.999Z</time>
      </trkpt>
      <trkpt lat="45.32441" lon="6.17806">
        <ele>2294</ele>
        <time>2020-02-09T10:34:05.001Z</time>
      </trkpt>
      <trkpt lat="45.32442" lon="6.17793">
        <ele>2294</ele>
        <time>2020-02-09T10:34:30.001Z</time>
      </trkpt>
      <trkpt lat="45.32448" lon="6.17815">
        <ele>2295</ele>
        <time>2020-02-09T10:34:40.001Z</time>
      </trkpt>
      <trkpt lat="45.32445" lon="6.17802">
        <ele>2295</ele>
        <time>2020-02-09T10:34:43.989Z</time>
      </trkpt>
      <trkpt lat="45.32444" lon="6.1779">
        <ele>2296</ele>
        <time>2020-02-09T10:35:11.987Z</time>
      </trkpt>
      <trkpt lat="45.32434" lon="6.17776">
        <ele>2296</ele>
        <time>2020-02-09T10:35:30.001Z</time>
      </trkpt>
      <trkpt lat="45.32443" lon="6.17785">
        <ele>2296</ele>
        <time>2020-02-09T10:35:32.001Z</time>
      </trkpt>
      <trkpt lat="45.3244" lon="6.17772">
        <ele>2296</ele>
        <time>2020-02-09T10:35:39.989Z</time>
      </trkpt>
      <trkpt lat="45.3244" lon="6.17758">
        <ele>2296</ele>
        <time>2020-02-09T10:35:42.989Z</time>
      </trkpt>
      <trkpt lat="45.32447" lon="6.17784">
        <ele>2297</ele>
        <time>2020-02-09T10:35:52.001Z</time>
      </trkpt>
      <trkpt lat="45.32448" lon="6.17798">
        <ele>2296.632676856</ele>
        <time>2020-02-09T10:35:58.001Z</time>
      </trkpt>
      <trkpt lat="45.32439" lon="6.17794">
        <ele>2298</ele>
        <time>2020-02-09T10:36:37.101Z</time>
      </trkpt>
      <trkpt lat="45.32448" lon="6.17797">
        <ele>2296.3709952</ele>
        <time>2020-02-09T10:36:52.001Z</time>
      </trkpt>
      <trkpt lat="45.3244" lon="6.17806">
        <ele>2297</ele>
        <time>2020-02-09T10:37:05.989Z</time>
      </trkpt>
      <trkpt lat="45.32435" lon="6.17795">
        <ele>2297</ele>
        <time>2020-02-09T10:37:27.989Z</time>
      </trkpt>
      <trkpt lat="45.32439" lon="6.17782">
        <ele>2298</ele>
        <time>2020-02-09T10:37:57.004Z</time>
      </trkpt>
      <trkpt lat="45.32445" lon="6.17793">
        <ele>2300</ele>
        <time>2020-02-09T10:38:17.990Z</time>
      </trkpt>
      <trkpt lat="45.32435" lon="6.17798">
        <ele>2300.6409984</ele>
        <time>2020-02-09T10:38:52.989Z</time>
      </trkpt>
      <trkpt lat="45.32445" lon="6.17797">
        <ele>2302</ele>
        <time>2020-02-09T10:39:13.989Z</time>
      </trkpt>
      <trkpt lat="45.32439" lon="6.17808">
        <ele>2302</ele>
        <time>2020-02-09T10:39:49.001Z</time>
      </trkpt>
      <trkpt lat="45.32444" lon="6.17796">
        <ele>2302</ele>
        <time>2020-02-09T10:40:09.001Z</time>
      </trkpt>
      <trkpt lat="45.32436" lon="6.17805">
        <ele>2302</ele>
        <time>2020-02-09T10:40:27.990Z</time>
      </trkpt>
      <trkpt lat="45.32441" lon="6.17794">
        <ele>2302</ele>
        <time>2020-02-09T10:40:55.990Z</time>
      </trkpt>
      <trkpt lat="45.32432" lon="6.17796">
        <ele>2303</ele>
        <time>2020-02-09T10:42:35.001Z</time>
      </trkpt>
      <trkpt lat="45.32441" lon="6.17795">
        <ele>2305</ele>
        <time>2020-02-09T10:43:04.990Z</time>
      </trkpt>
      <trkpt lat="45.32437" lon="6.17806">
        <ele>2307</ele>
        <time>2020-02-09T10:44:14.988Z</time>
      </trkpt>
      <trkpt lat="45.32437" lon="6.1782">
        <ele>2308</ele>
        <time>2020-02-09T10:44:27.028Z</time>
      </trkpt>
      <trkpt lat="45.32431" lon="6.17832">
        <ele>2309</ele>
        <time>2020-02-09T10:44:48.990Z</time>
      </trkpt>
      <trkpt lat="45.32423" lon="6.17839">
        <ele>2308.6300032</ele>
        <time>2020-02-09T10:44:58.000Z</time>
      </trkpt>
      <trkpt lat="45.32418" lon="6.17851">
        <ele>2308.0972266667</ele>
        <time>2020-02-09T10:45:22.000Z</time>
      </trkpt>
      <trkpt lat="45.32415" lon="6.17863">
        <ele>2310</ele>
        <time>2020-02-09T10:45:46.990Z</time>
      </trkpt>
      <trkpt lat="45.32408" lon="6.17871">
        <ele>2311</ele>
        <time>2020-02-09T10:45:58.988Z</time>
      </trkpt>
      <trkpt lat="45.32401" lon="6.17879">
        <ele>2313</ele>
        <time>2020-02-09T10:46:08.990Z</time>
      </trkpt>
      <trkpt lat="45.32396" lon="6.1789">
        <ele>2314</ele>
        <time>2020-02-09T10:46:22.990Z</time>
      </trkpt>
      <trkpt lat="45.32392" lon="6.17902">
        <ele>2317</ele>
        <time>2020-02-09T10:46:41.990Z</time>
      </trkpt>
      <trkpt lat="45.32391" lon="6.17915">
        <ele>2319</ele>
        <time>2020-02-09T10:46:59.958Z</time>
      </trkpt>
      <trkpt lat="45.32385" lon="6.17925">
        <ele>2321</ele>
        <time>2020-02-09T10:47:21.003Z</time>
      </trkpt>
      <trkpt lat="45.32382" lon="6.17937">
        <ele>2326</ele>
        <time>2020-02-09T10:47:41.988Z</time>
      </trkpt>
      <trkpt lat="45.32381" lon="6.1795">
        <ele>2328</ele>
        <time>2020-02-09T10:47:59.988Z</time>
      </trkpt>
      <trkpt lat="45.32379" lon="6.17963">
        <ele>2330</ele>
        <time>2020-02-09T10:48:18.987Z</time>
      </trkpt>
      <trkpt lat="45.32385" lon="6.17974">
        <ele>2332</ele>
        <time>2020-02-09T10:48:31.988Z</time>
      </trkpt>
      <trkpt lat="45.32386" lon="6.17987">
        <ele>2334</ele>
        <time>2020-02-09T10:48:51.003Z</time>
      </trkpt>
      <trkpt lat="45.32382" lon="6.17999">
        <ele>2337</ele>
        <time>2020-02-09T10:49:12.020Z</time>
      </trkpt>
      <trkpt lat="45.32381" lon="6.18011">
        <ele>2340</ele>
        <time>2020-02-09T10:49:31.960Z</time>
      </trkpt>
      <trkpt lat="45.32375" lon="6.18022">
        <ele>2344</ele>
        <time>2020-02-09T10:49:52.990Z</time>
      </trkpt>
      <trkpt lat="45.32367" lon="6.1803">
        <ele>2346</ele>
        <time>2020-02-09T10:50:13.002Z</time>
      </trkpt>
      <trkpt lat="45.3236" lon="6.18039">
        <ele>2348</ele>
        <time>2020-02-09T10:50:28.030Z</time>
      </trkpt>
      <trkpt lat="45.32357" lon="6.18052">
        <ele>2350</ele>
        <time>2020-02-09T10:50:47.001Z</time>
      </trkpt>
      <trkpt lat="45.3235" lon="6.18061">
        <ele>2355</ele>
        <time>2020-02-09T10:51:10.001Z</time>
      </trkpt>
      <trkpt lat="45.32341" lon="6.18061">
        <ele>2357</ele>
        <time>2020-02-09T10:51:31.990Z</time>
      </trkpt>
      <trkpt lat="45.32331" lon="6.18062">
        <ele>2361</ele>
        <time>2020-02-09T10:51:55.991Z</time>
      </trkpt>
      <trkpt lat="45.3233" lon="6.18076">
        <ele>2365</ele>
        <time>2020-02-09T10:52:20.002Z</time>
      </trkpt>
      <trkpt lat="45.32329" lon="6.18089">
        <ele>2367</ele>
        <time>2020-02-09T10:52:37.988Z</time>
      </trkpt>
      <trkpt lat="45.32326" lon="6.18101">
        <ele>2370</ele>
        <time>2020-02-09T10:53:57.961Z</time>
      </trkpt>
      <trkpt lat="45.32334" lon="6.18093">
        <ele>2373</ele>
        <time>2020-02-09T10:56:22.991Z</time>
      </trkpt>
      <trkpt lat="45.32343" lon="6.18092">
        <ele>2374</ele>
        <time>2020-02-09T10:57:07.960Z</time>
      </trkpt>
      <trkpt lat="45.32353" lon="6.18091">
        <ele>2374</ele>
        <time>2020-02-09T10:57:31.991Z</time>
      </trkpt>
      <trkpt lat="45.32343" lon="6.18095">
        <ele>2375</ele>
        <time>2020-02-09T10:57:49.991Z</time>
      </trkpt>
      <trkpt lat="45.32334" lon="6.18092">
        <ele>2376</ele>
        <time>2020-02-09T10:58:19.991Z</time>
      </trkpt>
      <trkpt lat="45.32342" lon="6.18099">
        <ele>2376</ele>
        <time>2020-02-09T10:59:04.001Z</time>
      </trkpt>
      <trkpt lat="45.32333" lon="6.18097">
        <ele>2376</ele>
        <time>2020-02-09T10:59:20.961Z</time>
      </trkpt>
      <trkpt lat="45.32324" lon="6.18091">
        <ele>2378</ele>
        <time>2020-02-09T10:59:51.991Z</time>
      </trkpt>
      <trkpt lat="45.32332" lon="6.18097">
        <ele>2378</ele>
        <time>2020-02-09T11:00:30.992Z</time>
      </trkpt>
      <trkpt lat="45.32324" lon="6.181">
        <ele>2380.3709952</ele>
        <time>2020-02-09T11:01:36.001Z</time>
      </trkpt>
      <trkpt lat="45.32314" lon="6.18098">
        <ele>2383.3709952</ele>
        <time>2020-02-09T11:01:51.001Z</time>
      </trkpt>
      <trkpt lat="45.32305" lon="6.18098">
        <ele>2385</ele>
        <time>2020-02-09T11:02:07.001Z</time>
      </trkpt>
      <trkpt lat="45.32297" lon="6.18105">
        <ele>2389.3869952</ele>
        <time>2020-02-09T11:02:30.017Z</time>
      </trkpt>
      <trkpt lat="45.32288" lon="6.18111">
        <ele>2392</ele>
        <time>2020-02-09T11:02:46.987Z</time>
      </trkpt>
      <trkpt lat="45.3228" lon="6.18118">
        <ele>2394.0607870696</ele>
        <time>2020-02-09T11:03:05.992Z</time>
      </trkpt>
      <trkpt lat="45.3227" lon="6.18119">
        <ele>2396</ele>
        <time>2020-02-09T11:03:14.992Z</time>
      </trkpt>
      <trkpt lat="45.32261" lon="6.18121">
        <ele>2396.3619968</ele>
        <time>2020-02-09T11:03:21.992Z</time>
      </trkpt>
      <trkpt lat="45.32256" lon="6.18131">
        <ele>2400</ele>
        <time>2020-02-09T11:03:39.991Z</time>
      </trkpt>
      <trkpt lat="45.32255" lon="6.18144">
        <ele>2404.3270016</ele>
        <time>2020-02-09T11:04:05.957Z</time>
      </trkpt>
      <trkpt lat="45.32247" lon="6.18151">
        <ele>2407</ele>
        <time>2020-02-09T11:04:24.032Z</time>
      </trkpt>
      <trkpt lat="45.32238" lon="6.18155">
        <ele>2409</ele>
        <time>2020-02-09T11:04:36.992Z</time>
      </trkpt>
      <trkpt lat="45.32229" lon="6.18158">
        <ele>2411</ele>
        <time>2020-02-09T11:04:54.001Z</time>
      </trkpt>
      <trkpt lat="45.32223" lon="6.18168">
        <ele>2415</ele>
        <time>2020-02-09T11:05:19.987Z</time>
      </trkpt>
      <trkpt lat="45.32218" lon="6.18157">
        <ele>2420.2784604478</ele>
        <time>2020-02-09T11:05:55.992Z</time>
      </trkpt>
      <trkpt lat="45.32224" lon="6.18145">
        <ele>2424</ele>
        <time>2020-02-09T11:06:19.992Z</time>
      </trkpt>
      <trkpt lat="45.32219" lon="6.18134">
        <ele>2427</ele>
        <time>2020-02-09T11:06:43.987Z</time>
      </trkpt>
      <trkpt lat="45.32209" lon="6.18129">
        <ele>2432</ele>
        <time>2020-02-09T11:07:06.987Z</time>
      </trkpt>
      <trkpt lat="45.32199" lon="6.18128">
        <ele>2434</ele>
        <time>2020-02-09T11:07:25.987Z</time>
      </trkpt>
      <trkpt lat="45.3219" lon="6.18135">
        <ele>2437</ele>
        <time>2020-02-09T11:07:40.992Z</time>
      </trkpt>
      <trkpt lat="45.32185" lon="6.18146">
        <ele>2441</ele>
        <time>2020-02-09T11:08:08.991Z</time>
      </trkpt>
      <trkpt lat="45.32177" lon="6.18152">
        <ele>2443</ele>
        <time>2020-02-09T11:08:26.991Z</time>
      </trkpt>
      <trkpt lat="45.32179" lon="6.18166">
        <ele>2445</ele>
        <time>2020-02-09T11:08:41.987Z</time>
      </trkpt>
      <trkpt lat="45.3218" lon="6.1818">
        <ele>2447.356992</ele>
        <time>2020-02-09T11:08:58.987Z</time>
      </trkpt>
      <trkpt lat="45.32173" lon="6.1819">
        <ele>2450</ele>
        <time>2020-02-09T11:09:16.987Z</time>
      </trkpt>
      <trkpt lat="45.32176" lon="6.18202">
        <ele>2453</ele>
        <time>2020-02-09T11:09:36.991Z</time>
      </trkpt>
      <trkpt lat="45.3218" lon="6.18214">
        <ele>2457</ele>
        <time>2020-02-09T11:09:53.001Z</time>
      </trkpt>
      <trkpt lat="45.32183" lon="6.18226">
        <ele>2458.328</ele>
        <time>2020-02-09T11:10:06.958Z</time>
      </trkpt>
      <trkpt lat="45.32187" lon="6.18238">
        <ele>2461.1000018028</ele>
        <time>2020-02-09T11:10:23.001Z</time>
      </trkpt>
      <trkpt lat="45.32188" lon="6.18251">
        <ele>2464</ele>
        <time>2020-02-09T11:10:45.991Z</time>
      </trkpt>
      <trkpt lat="45.32187" lon="6.18264">
        <ele>2468</ele>
        <time>2020-02-09T11:11:05.991Z</time>
      </trkpt>
      <trkpt lat="45.32183" lon="6.18275">
        <ele>2469</ele>
        <time>2020-02-09T11:11:24.987Z</time>
      </trkpt>
      <trkpt lat="45.32177" lon="6.18288">
        <ele>2472</ele>
        <time>2020-02-09T11:12:06.987Z</time>
      </trkpt>
      <trkpt lat="45.32168" lon="6.18291">
        <ele>2472</ele>
        <time>2020-02-09T11:12:23.001Z</time>
      </trkpt>
      <trkpt lat="45.32178" lon="6.18287">
        <ele>2472</ele>
        <time>2020-02-09T11:12:29.002Z</time>
      </trkpt>
      <trkpt lat="45.32191" lon="6.18288">
        <ele>2472</ele>
        <time>2020-02-09T11:12:44.987Z</time>
      </trkpt>
      <trkpt lat="45.32182" lon="6.18293">
        <ele>2474</ele>
        <time>2020-02-09T11:12:55.001Z</time>
      </trkpt>
      <trkpt lat="45.32192" lon="6.18293">
        <ele>2472</ele>
        <time>2020-02-09T11:13:11.001Z</time>
      </trkpt>
      <trkpt lat="45.32202" lon="6.18292">
        <ele>2472</ele>
        <time>2020-02-09T11:13:40.001Z</time>
      </trkpt>
      <trkpt lat="45.32192" lon="6.18287">
        <ele>2474</ele>
        <time>2020-02-09T11:14:26.003Z</time>
      </trkpt>
      <trkpt lat="45.32183" lon="6.18291">
        <ele>2475</ele>
        <time>2020-02-09T11:14:53.988Z</time>
      </trkpt>
      <trkpt lat="45.32172" lon="6.18294">
        <ele>2475</ele>
        <time>2020-02-09T11:15:00.001Z</time>
      </trkpt>
      <trkpt lat="45.32165" lon="6.18302">
        <ele>2475</ele>
        <time>2020-02-09T11:15:05.002Z</time>
      </trkpt>
      <trkpt lat="45.32174" lon="6.18294">
        <ele>2475</ele>
        <time>2020-02-09T11:15:14.001Z</time>
      </trkpt>
      <trkpt lat="45.32182" lon="6.18288">
        <ele>2476</ele>
        <time>2020-02-09T11:15:27.997Z</time>
      </trkpt>
      <trkpt lat="45.32193" lon="6.18287">
        <ele>2476</ele>
        <time>2020-02-09T11:15:56.001Z</time>
      </trkpt>
      <trkpt lat="45.32182" lon="6.18288">
        <ele>2476</ele>
        <time>2020-02-09T11:16:03.001Z</time>
      </trkpt>
      <trkpt lat="45.32191" lon="6.1829">
        <ele>2477</ele>
        <time>2020-02-09T11:16:24.001Z</time>
      </trkpt>
      <trkpt lat="45.32182" lon="6.18287">
        <ele>2480</ele>
        <time>2020-02-09T11:17:42.973Z</time>
      </trkpt>
      <trkpt lat="45.32176" lon="6.18297">
        <ele>2482</ele>
        <time>2020-02-09T11:17:54.988Z</time>
      </trkpt>
      <trkpt lat="45.32178" lon="6.1831">
        <ele>2484.7160064</ele>
        <time>2020-02-09T11:18:10.988Z</time>
      </trkpt>
      <trkpt lat="45.32171" lon="6.1832">
        <ele>2488</ele>
        <time>2020-02-09T11:18:28.001Z</time>
      </trkpt>
      <trkpt lat="45.32175" lon="6.18334">
        <ele>2490</ele>
        <time>2020-02-09T11:18:53.991Z</time>
      </trkpt>
      <trkpt lat="45.32179" lon="6.18346">
        <ele>2494</ele>
        <time>2020-02-09T11:19:10.987Z</time>
      </trkpt>
      <trkpt lat="45.32173" lon="6.18356">
        <ele>2499</ele>
        <time>2020-02-09T11:19:44.001Z</time>
      </trkpt>
      <trkpt lat="45.32164" lon="6.18353">
        <ele>2501</ele>
        <time>2020-02-09T11:19:53.001Z</time>
      </trkpt>
      <trkpt lat="45.32157" lon="6.18343">
        <ele>2505</ele>
        <time>2020-02-09T11:20:17.001Z</time>
      </trkpt>
      <trkpt lat="45.32148" lon="6.18335">
        <ele>2507</ele>
        <time>2020-02-09T11:20:36.002Z</time>
      </trkpt>
      <trkpt lat="45.32141" lon="6.18325">
        <ele>2512</ele>
        <time>2020-02-09T11:21:00.987Z</time>
      </trkpt>
      <trkpt lat="45.32132" lon="6.18319">
        <ele>2515</ele>
        <time>2020-02-09T11:21:23.988Z</time>
      </trkpt>
      <trkpt lat="45.32123" lon="6.18313">
        <ele>2517</ele>
        <time>2020-02-09T11:21:37.989Z</time>
      </trkpt>
      <trkpt lat="45.32117" lon="6.18303">
        <ele>2519</ele>
        <time>2020-02-09T11:21:53.987Z</time>
      </trkpt>
      <trkpt lat="45.32108" lon="6.18306">
        <ele>2519</ele>
        <time>2020-02-09T11:22:01.988Z</time>
      </trkpt>
      <trkpt lat="45.32115" lon="6.18297">
        <ele>2520</ele>
        <time>2020-02-09T11:22:17.001Z</time>
      </trkpt>
      <trkpt lat="45.32123" lon="6.1829">
        <ele>2522</ele>
        <time>2020-02-09T11:22:32.989Z</time>
      </trkpt>
      <trkpt lat="45.32124" lon="6.18304">
        <ele>2525</ele>
        <time>2020-02-09T11:22:56.001Z</time>
      </trkpt>
      <trkpt lat="45.32121" lon="6.18316">
        <ele>2528</ele>
        <time>2020-02-09T11:23:12.001Z</time>
      </trkpt>
      <trkpt lat="45.32117" lon="6.18328">
        <ele>2530.3709952</ele>
        <time>2020-02-09T11:23:31.001Z</time>
      </trkpt>
      <trkpt lat="45.32109" lon="6.18337">
        <ele>2532</ele>
        <time>2020-02-09T11:23:49.991Z</time>
      </trkpt>
      <trkpt lat="45.32107" lon="6.1835">
        <ele>2533</ele>
        <time>2020-02-09T11:24:04.990Z</time>
      </trkpt>
      <trkpt lat="45.32109" lon="6.18363">
        <ele>2538</ele>
        <time>2020-02-09T11:24:23.988Z</time>
      </trkpt>
      <trkpt lat="45.32109" lon="6.18376">
        <ele>2539.2712048485</ele>
        <time>2020-02-09T11:24:43.988Z</time>
      </trkpt>
      <trkpt lat="45.32114" lon="6.18387">
        <ele>2542</ele>
        <time>2020-02-09T11:25:02.990Z</time>
      </trkpt>
      <trkpt lat="45.32107" lon="6.18395">
        <ele>2549</ele>
        <time>2020-02-09T11:25:59.001Z</time>
      </trkpt>
      <trkpt lat="45.32097" lon="6.18394">
        <ele>2551</ele>
        <time>2020-02-09T11:26:13.001Z</time>
      </trkpt>
      <trkpt lat="45.32088" lon="6.18389">
        <ele>2554</ele>
        <time>2020-02-09T11:26:28.001Z</time>
      </trkpt>
      <trkpt lat="45.3208" lon="6.18384">
        <ele>2555</ele>
        <time>2020-02-09T11:26:37.001Z</time>
      </trkpt>
      <trkpt lat="45.32075" lon="6.18373">
        <ele>2557</ele>
        <time>2020-02-09T11:26:58.001Z</time>
      </trkpt>
      <trkpt lat="45.32076" lon="6.1836">
        <ele>2561</ele>
        <time>2020-02-09T11:27:15.003Z</time>
      </trkpt>
      <trkpt lat="45.32067" lon="6.18353">
        <ele>2562.3709952</ele>
        <time>2020-02-09T11:28:04.001Z</time>
      </trkpt>
      <trkpt lat="45.32075" lon="6.18347">
        <ele>2563</ele>
        <time>2020-02-09T11:28:13.990Z</time>
      </trkpt>
      <trkpt lat="45.32085" lon="6.18354">
        <ele>2562</ele>
        <time>2020-02-09T11:28:29.001Z</time>
      </trkpt>
      <trkpt lat="45.32075" lon="6.18351">
        <ele>2563</ele>
        <time>2020-02-09T11:28:36.001Z</time>
      </trkpt>
      <trkpt lat="45.32074" lon="6.18365">
        <ele>2567</ele>
        <time>2020-02-09T11:29:07.990Z</time>
      </trkpt>
      <trkpt lat="45.32077" lon="6.18378">
        <ele>2571</ele>
        <time>2020-02-09T11:29:37.999Z</time>
      </trkpt>
      <trkpt lat="45.32076" lon="6.18391">
        <ele>2572</ele>
        <time>2020-02-09T11:29:49.990Z</time>
      </trkpt>
      <trkpt lat="45.32077" lon="6.18403">
        <ele>2575</ele>
        <time>2020-02-09T11:30:03.000Z</time>
      </trkpt>
      <trkpt lat="45.32084" lon="6.18413">
        <ele>2576</ele>
        <time>2020-02-09T11:30:18.990Z</time>
      </trkpt>
      <trkpt lat="45.32086" lon="6.18426">
        <ele>2580</ele>
        <time>2020-02-09T11:30:41.020Z</time>
      </trkpt>
      <trkpt lat="45.32092" lon="6.18436">
        <ele>2583</ele>
        <time>2020-02-09T11:30:58.990Z</time>
      </trkpt>
      <trkpt lat="45.32095" lon="6.18448">
        <ele>2586</ele>
        <time>2020-02-09T11:31:16.990Z</time>
      </trkpt>
      <trkpt lat="45.32099" lon="6.18461">
        <ele>2588</ele>
        <time>2020-02-09T11:31:39.990Z</time>
      </trkpt>
      <trkpt lat="45.32091" lon="6.18467">
        <ele>2592</ele>
        <time>2020-02-09T11:32:28.990Z</time>
      </trkpt>
      <trkpt lat="45.32094" lon="6.18479">
        <ele>2596</ele>
        <time>2020-02-09T11:32:52.990Z</time>
      </trkpt>
      <trkpt lat="45.32102" lon="6.18488">
        <ele>2598</ele>
        <time>2020-02-09T11:33:10.001Z</time>
      </trkpt>
      <trkpt lat="45.3211" lon="6.18495">
        <ele>2600</ele>
        <time>2020-02-09T11:33:40.990Z</time>
      </trkpt>
      <trkpt lat="45.32117" lon="6.18504">
        <ele>2603</ele>
        <time>2020-02-09T11:33:58.988Z</time>
      </trkpt>
      <trkpt lat="45.32126" lon="6.18504">
        <ele>2607</ele>
        <time>2020-02-09T11:34:56.990Z</time>
      </trkpt>
      <trkpt lat="45.32116" lon="6.18507">
        <ele>2607</ele>
        <time>2020-02-09T11:36:02.988Z</time>
      </trkpt>
      <trkpt lat="45.32125" lon="6.18504">
        <ele>2608</ele>
        <time>2020-02-09T11:36:40.990Z</time>
      </trkpt>
      <trkpt lat="45.32138" lon="6.18512">
        <ele>2610</ele>
        <time>2020-02-09T11:39:38.001Z</time>
      </trkpt>
      <trkpt lat="45.32128" lon="6.18514">
        <ele>2613</ele>
        <time>2020-02-09T11:40:01.001Z</time>
      </trkpt>
      <trkpt lat="45.32118" lon="6.18518">
        <ele>2614</ele>
        <time>2020-02-09T11:40:11.001Z</time>
      </trkpt>
      <trkpt lat="45.32121" lon="6.1853">
        <ele>2621</ele>
        <time>2020-02-09T11:40:53.990Z</time>
      </trkpt>
      <trkpt lat="45.32113" lon="6.18535">
        <ele>2624</ele>
        <time>2020-02-09T11:41:12.988Z</time>
      </trkpt>
      <trkpt lat="45.32104" lon="6.1854">
        <ele>2624</ele>
        <time>2020-02-09T11:41:24.999Z</time>
      </trkpt>
      <trkpt lat="45.32096" lon="6.18546">
        <ele>2628</ele>
        <time>2020-02-09T11:41:49.001Z</time>
      </trkpt>
      <trkpt lat="45.32087" lon="6.18545">
        <ele>2633</ele>
        <time>2020-02-09T11:42:12.988Z</time>
      </trkpt>
      <trkpt lat="45.32079" lon="6.18551">
        <ele>2634</ele>
        <time>2020-02-09T11:42:26.990Z</time>
      </trkpt>
      <trkpt lat="45.32089" lon="6.18551">
        <ele>2637</ele>
        <time>2020-02-09T11:42:52.987Z</time>
      </trkpt>
      <trkpt lat="45.32083" lon="6.18562">
        <ele>2641</ele>
        <time>2020-02-09T11:43:23.001Z</time>
      </trkpt>
      <trkpt lat="45.3208" lon="6.18574">
        <ele>2647.0704357389</ele>
        <time>2020-02-09T11:44:15.990Z</time>
      </trkpt>
      <trkpt lat="45.32071" lon="6.18575">
        <ele>2648.3709952</ele>
        <time>2020-02-09T11:44:24.001Z</time>
      </trkpt>
      <trkpt lat="45.32081" lon="6.18578">
        <ele>2651</ele>
        <time>2020-02-09T11:45:07.989Z</time>
      </trkpt>
      <trkpt lat="45.32073" lon="6.18586">
        <ele>2658</ele>
        <time>2020-02-09T11:46:09.989Z</time>
      </trkpt>
      <trkpt lat="45.32069" lon="6.18574">
        <ele>2663</ele>
        <time>2020-02-09T11:47:24.001Z</time>
      </trkpt>
      <trkpt lat="45.32067" lon="6.18587">
        <ele>2663</ele>
        <time>2020-02-09T11:47:32.001Z</time>
      </trkpt>
      <trkpt lat="45.3206" lon="6.18594">
        <ele>2666</ele>
        <time>2020-02-09T11:48:30.989Z</time>
      </trkpt>
      <trkpt lat="45.3207" lon="6.18593">
        <ele>2673</ele>
        <time>2020-02-09T11:50:55.001Z</time>
      </trkpt>
      <trkpt lat="45.32061" lon="6.18594">
        <ele>2675</ele>
        <time>2020-02-09T11:51:16.030Z</time>
      </trkpt>
      <trkpt lat="45.32052" lon="6.18598">
        <ele>2677</ele>
        <time>2020-02-09T11:51:28.101Z</time>
      </trkpt>
      <trkpt lat="45.32042" lon="6.186">
        <ele>2682</ele>
        <time>2020-02-09T11:52:08.001Z</time>
      </trkpt>
      <trkpt lat="45.32032" lon="6.18603">
        <ele>2685</ele>
        <time>2020-02-09T11:52:34.990Z</time>
      </trkpt>
      <trkpt lat="45.32024" lon="6.18607">
        <ele>2687.6290048</ele>
        <time>2020-02-09T11:53:10.001Z</time>
      </trkpt>
      <trkpt lat="45.32014" lon="6.18604">
        <ele>2689</ele>
        <time>2020-02-09T11:53:24.001Z</time>
      </trkpt>
      <trkpt lat="45.32006" lon="6.18598">
        <ele>2690</ele>
        <time>2020-02-09T11:53:35.001Z</time>
      </trkpt>
      <trkpt lat="45.31998" lon="6.18591">
        <ele>2692</ele>
        <time>2020-02-09T11:53:53.990Z</time>
      </trkpt>
      <trkpt lat="45.31989" lon="6.18592">
        <ele>2693</ele>
        <time>2020-02-09T11:54:34.990Z</time>
      </trkpt>
      <trkpt lat="45.31997" lon="6.186">
        <ele>2697</ele>
        <time>2020-02-09T11:55:05.001Z</time>
      </trkpt>
      <trkpt lat="45.32001" lon="6.18612">
        <ele>2699</ele>
        <time>2020-02-09T11:55:18.001Z</time>
      </trkpt>
      <trkpt lat="45.32007" lon="6.18621">
        <ele>2701</ele>
        <time>2020-02-09T11:55:44.989Z</time>
      </trkpt>
      <trkpt lat="45.31998" lon="6.18625">
        <ele>2705</ele>
        <time>2020-02-09T11:56:05.990Z</time>
      </trkpt>
      <trkpt lat="45.32003" lon="6.18635">
        <ele>2712</ele>
        <time>2020-02-09T11:57:07.990Z</time>
      </trkpt>
      <trkpt lat="45.31997" lon="6.18645">
        <ele>2719</ele>
        <time>2020-02-09T11:58:12.991Z</time>
      </trkpt>
      <trkpt lat="45.31988" lon="6.1865">
        <ele>2721</ele>
        <time>2020-02-09T11:59:05.990Z</time>
      </trkpt>
      <trkpt lat="45.31996" lon="6.18642">
        <ele>2721</ele>
        <time>2020-02-09T12:00:35.990Z</time>
      </trkpt>
      <trkpt lat="45.31987" lon="6.18648">
        <ele>2728.3419904</ele>
        <time>2020-02-09T12:01:24.971Z</time>
      </trkpt>
      <trkpt lat="45.3198" lon="6.18654">
        <ele>2733</ele>
        <time>2020-02-09T12:02:02.960Z</time>
      </trkpt>
      <trkpt lat="45.31982" lon="6.18667">
        <ele>2737</ele>
        <time>2020-02-09T12:03:35.989Z</time>
      </trkpt>
      <trkpt lat="45.31984" lon="6.18654">
        <ele>2742</ele>
        <time>2020-02-09T12:23:01.988Z</time>
      </trkpt>
      <trkpt lat="45.31982" lon="6.18641">
        <ele>2738</ele>
        <time>2020-02-09T12:28:32.990Z</time>
      </trkpt>
      <trkpt lat="45.31989" lon="6.1865">
        <ele>2738</ele>
        <time>2020-02-09T12:29:32.990Z</time>
      </trkpt>
      <trkpt lat="45.31998" lon="6.18653">
        <ele>2740</ele>
        <time>2020-02-09T12:31:22.000Z</time>
      </trkpt>
      <trkpt lat="45.31989" lon="6.18646">
        <ele>2740</ele>
        <time>2020-02-09T12:31:34.990Z</time>
      </trkpt>
      <trkpt lat="45.31998" lon="6.1864">
        <ele>2735.2839936</ele>
        <time>2020-02-09T12:31:42.988Z</time>
      </trkpt>
      <trkpt lat="45.32008" lon="6.18632">
        <ele>2729.809902797</ele>
        <time>2020-02-09T12:31:45.988Z</time>
      </trkpt>
      <trkpt lat="45.32015" lon="6.18623">
        <ele>2722.2200192</ele>
        <time>2020-02-09T12:31:48.020Z</time>
      </trkpt>
      <trkpt lat="45.3202" lon="6.18606">
        <ele>2715.56</ele>
        <time>2020-02-09T12:31:50.990Z</time>
      </trkpt>
      <trkpt lat="45.32027" lon="6.18599">
        <ele>2709</ele>
        <time>2020-02-09T12:32:02.987Z</time>
      </trkpt>
      <trkpt lat="45.32037" lon="6.18602">
        <ele>2708.6500056471</ele>
        <time>2020-02-09T12:32:08.987Z</time>
      </trkpt>
      <trkpt lat="45.32048" lon="6.186">
        <ele>2706.7274850258</ele>
        <time>2020-02-09T12:32:10.987Z</time>
      </trkpt>
      <trkpt lat="45.32058" lon="6.18599">
        <ele>2703.929024</ele>
        <time>2020-02-09T12:32:12.987Z</time>
      </trkpt>
      <trkpt lat="45.3207" lon="6.18598">
        <ele>2699.6419968</ele>
        <time>2020-02-09T12:32:14.988Z</time>
      </trkpt>
      <trkpt lat="45.32081" lon="6.18597">
        <ele>2697.6408186722</ele>
        <time>2020-02-09T12:32:17.002Z</time>
      </trkpt>
      <trkpt lat="45.32092" lon="6.18598">
        <ele>2694.175574533</ele>
        <time>2020-02-09T12:32:19.990Z</time>
      </trkpt>
      <trkpt lat="45.32104" lon="6.18598">
        <ele>2686.4549700517</ele>
        <time>2020-02-09T12:32:22.987Z</time>
      </trkpt>
      <trkpt lat="45.32097" lon="6.18582">
        <ele>2676.2580096</ele>
        <time>2020-02-09T12:32:28.001Z</time>
      </trkpt>
      <trkpt lat="45.3209" lon="6.18564">
        <ele>2673.3333416994</ele>
        <time>2020-02-09T12:32:29.970Z</time>
      </trkpt>
      <trkpt lat="45.32091" lon="6.1855">
        <ele>2668.5680384</ele>
        <time>2020-02-09T12:32:31.988Z</time>
      </trkpt>
      <trkpt lat="45.32097" lon="6.18536">
        <ele>2661.4305423918</ele>
        <time>2020-02-09T12:32:35.003Z</time>
      </trkpt>
      <trkpt lat="45.32105" lon="6.18523">
        <ele>2652.2840192</ele>
        <time>2020-02-09T12:32:37.988Z</time>
      </trkpt>
      <trkpt lat="45.32113" lon="6.18517">
        <ele>2648.2839936</ele>
        <time>2020-02-09T12:32:40.988Z</time>
      </trkpt>
      <trkpt lat="45.32122" lon="6.18506">
        <ele>2641.2969848986</ele>
        <time>2020-02-09T12:32:43.988Z</time>
      </trkpt>
      <trkpt lat="45.32117" lon="6.18496">
        <ele>2637</ele>
        <time>2020-02-09T12:33:34.990Z</time>
      </trkpt>
      <trkpt lat="45.32108" lon="6.18499">
        <ele>2638</ele>
        <time>2020-02-09T12:35:41.990Z</time>
      </trkpt>
      <trkpt lat="45.32099" lon="6.18489">
        <ele>2635.266678734</ele>
        <time>2020-02-09T12:35:49.003Z</time>
      </trkpt>
      <trkpt lat="45.32095" lon="6.18474">
        <ele>2628.725191511</ele>
        <time>2020-02-09T12:35:51.990Z</time>
      </trkpt>
      <trkpt lat="45.32103" lon="6.18459">
        <ele>2625.6363648117</ele>
        <time>2020-02-09T12:35:54.000Z</time>
      </trkpt>
      <trkpt lat="45.32103" lon="6.18441">
        <ele>2623.4961893223</ele>
        <time>2020-02-09T12:35:55.960Z</time>
      </trkpt>
      <trkpt lat="45.32095" lon="6.18426">
        <ele>2619.64</ele>
        <time>2020-02-09T12:35:57.990Z</time>
      </trkpt>
      <trkpt lat="45.32088" lon="6.18413">
        <ele>2616.28</ele>
        <time>2020-02-09T12:35:59.990Z</time>
      </trkpt>
      <trkpt lat="45.32085" lon="6.18398">
        <ele>2613.2760064</ele>
        <time>2020-02-09T12:36:01.992Z</time>
      </trkpt>
      <trkpt lat="45.32094" lon="6.18393">
        <ele>2607.5878019229</ele>
        <time>2020-02-09T12:36:04.000Z</time>
      </trkpt>
      <trkpt lat="45.32106" lon="6.18382">
        <ele>2598.56</ele>
        <time>2020-02-09T12:36:05.990Z</time>
      </trkpt>
      <trkpt lat="45.32121" lon="6.18371">
        <ele>2589.190016</ele>
        <time>2020-02-09T12:36:07.992Z</time>
      </trkpt>
      <trkpt lat="45.32139" lon="6.18363">
        <ele>2582.6297682326</ele>
        <time>2020-02-09T12:36:09.989Z</time>
      </trkpt>
      <trkpt lat="45.32149" lon="6.1836">
        <ele>2578.7000153602</ele>
        <time>2020-02-09T12:36:10.990Z</time>
      </trkpt>
      <trkpt lat="45.32158" lon="6.18354">
        <ele>2572.6478213056</ele>
        <time>2020-02-09T12:36:11.990Z</time>
      </trkpt>
      <trkpt lat="45.32176" lon="6.18352">
        <ele>2562.809024</ele>
        <time>2020-02-09T12:36:14.027Z</time>
      </trkpt>
      <trkpt lat="45.32191" lon="6.18352">
        <ele>2553.8946689596</ele>
        <time>2020-02-09T12:36:15.992Z</time>
      </trkpt>
      <trkpt lat="45.32209" lon="6.18353">
        <ele>2545.2</ele>
        <time>2020-02-09T12:36:17.990Z</time>
      </trkpt>
      <trkpt lat="45.32225" lon="6.18351">
        <ele>2537.28</ele>
        <time>2020-02-09T12:36:19.990Z</time>
      </trkpt>
      <trkpt lat="45.32237" lon="6.18353">
        <ele>2534.471314322</ele>
        <time>2020-02-09T12:36:21.991Z</time>
      </trkpt>
      <trkpt lat="45.32228" lon="6.1835">
        <ele>2532</ele>
        <time>2020-02-09T12:36:25.989Z</time>
      </trkpt>
      <trkpt lat="45.32219" lon="6.18346">
        <ele>2532</ele>
        <time>2020-02-09T12:36:30.992Z</time>
      </trkpt>
      <trkpt lat="45.32211" lon="6.1834">
        <ele>2532</ele>
        <time>2020-02-09T12:36:40.001Z</time>
      </trkpt>
      <trkpt lat="45.32201" lon="6.18342">
        <ele>2532</ele>
        <time>2020-02-09T12:37:14.002Z</time>
      </trkpt>
      <trkpt lat="45.32212" lon="6.18336">
        <ele>2526.1755664774</ele>
        <time>2020-02-09T12:37:24.990Z</time>
      </trkpt>
      <trkpt lat="45.32224" lon="6.1833">
        <ele>2519.1755664774</ele>
        <time>2020-02-09T12:37:26.990Z</time>
      </trkpt>
      <trkpt lat="45.32236" lon="6.18323">
        <ele>2511.2142810496</ele>
        <time>2020-02-09T12:37:29.000Z</time>
      </trkpt>
      <trkpt lat="45.32249" lon="6.18313">
        <ele>2505.0100096</ele>
        <time>2020-02-09T12:37:30.960Z</time>
      </trkpt>
      <trkpt lat="45.32265" lon="6.18311">
        <ele>2497.6259441291</ele>
        <time>2020-02-09T12:37:32.990Z</time>
      </trkpt>
      <trkpt lat="45.32276" lon="6.18311">
        <ele>2493.4608492404</ele>
        <time>2020-02-09T12:37:34.002Z</time>
      </trkpt>
      <trkpt lat="45.32288" lon="6.18311">
        <ele>2486.2</ele>
        <time>2020-02-09T12:37:34.990Z</time>
      </trkpt>
      <trkpt lat="45.32299" lon="6.18309">
        <ele>2481.2</ele>
        <time>2020-02-09T12:37:35.990Z</time>
      </trkpt>
      <trkpt lat="45.32311" lon="6.18306">
        <ele>2476.3511329549</ele>
        <time>2020-02-09T12:37:36.990Z</time>
      </trkpt>
      <trkpt lat="45.32318" lon="6.18295">
        <ele>2471.7275307474</ele>
        <time>2020-02-09T12:37:37.987Z</time>
      </trkpt>
      <trkpt lat="45.32334" lon="6.18284">
        <ele>2464.92</ele>
        <time>2020-02-09T12:37:39.990Z</time>
      </trkpt>
      <trkpt lat="45.3234" lon="6.18262">
        <ele>2460.725191511</ele>
        <time>2020-02-09T12:37:41.990Z</time>
      </trkpt>
      <trkpt lat="45.32342" lon="6.18247">
        <ele>2458.627008</ele>
        <time>2020-02-09T12:37:44.003Z</time>
      </trkpt>
      <trkpt lat="45.3235" lon="6.18241">
        <ele>2456.1778609396</ele>
        <time>2020-02-09T12:37:45.989Z</time>
      </trkpt>
      <trkpt lat="45.32359" lon="6.1823">
        <ele>2451.308151457</ele>
        <time>2020-02-09T12:37:47.989Z</time>
      </trkpt>
      <trkpt lat="45.32367" lon="6.18219">
        <ele>2447.6710016</ele>
        <time>2020-02-09T12:37:49.959Z</time>
      </trkpt>
      <trkpt lat="45.32377" lon="6.18211">
        <ele>2445.7259536465</ele>
        <time>2020-02-09T12:37:51.989Z</time>
      </trkpt>
      <trkpt lat="45.32384" lon="6.18201">
        <ele>2443.6310016</ele>
        <time>2020-02-09T12:37:53.999Z</time>
      </trkpt>
      <trkpt lat="45.32393" lon="6.18193">
        <ele>2440.6490142683</ele>
        <time>2020-02-09T12:37:56.988Z</time>
      </trkpt>
      <trkpt lat="45.32382" lon="6.18187">
        <ele>2439</ele>
        <time>2020-02-09T12:38:12.001Z</time>
      </trkpt>
      <trkpt lat="45.32373" lon="6.18189">
        <ele>2439</ele>
        <time>2020-02-09T12:38:49.988Z</time>
      </trkpt>
      <trkpt lat="45.32383" lon="6.18189">
        <ele>2438</ele>
        <time>2020-02-09T12:38:58.992Z</time>
      </trkpt>
      <trkpt lat="45.3239" lon="6.182">
        <ele>2438</ele>
        <time>2020-02-09T12:39:19.987Z</time>
      </trkpt>
      <trkpt lat="45.32399" lon="6.18201">
        <ele>2437</ele>
        <time>2020-02-09T12:39:24.017Z</time>
      </trkpt>
      <trkpt lat="45.32408" lon="6.18199">
        <ele>2436</ele>
        <time>2020-02-09T12:39:27.997Z</time>
      </trkpt>
      <trkpt lat="45.32418" lon="6.18197">
        <ele>2435</ele>
        <time>2020-02-09T12:39:33.001Z</time>
      </trkpt>
      <trkpt lat="45.32429" lon="6.18195">
        <ele>2434</ele>
        <time>2020-02-09T12:39:36.987Z</time>
      </trkpt>
      <trkpt lat="45.32441" lon="6.18193">
        <ele>2433</ele>
        <time>2020-02-09T12:39:39.989Z</time>
      </trkpt>
      <trkpt lat="45.32449" lon="6.1819">
        <ele>2433</ele>
        <time>2020-02-09T12:39:43.958Z</time>
      </trkpt>
      <trkpt lat="45.32458" lon="6.18188">
        <ele>2433</ele>
        <time>2020-02-09T12:40:14.992Z</time>
      </trkpt>
      <trkpt lat="45.32468" lon="6.18188">
        <ele>2438</ele>
        <time>2020-02-09T12:49:51.017Z</time>
      </trkpt>
      <trkpt lat="45.32477" lon="6.18185">
        <ele>2439</ele>
        <time>2020-02-09T12:50:02.992Z</time>
      </trkpt>
      <trkpt lat="45.32484" lon="6.18191">
        <ele>2441.3609984</ele>
        <time>2020-02-09T12:50:16.991Z</time>
      </trkpt>
      <trkpt lat="45.32492" lon="6.182">
        <ele>2445</ele>
        <time>2020-02-09T12:50:45.987Z</time>
      </trkpt>
      <trkpt lat="45.32499" lon="6.18208">
        <ele>2446.3609984</ele>
        <time>2020-02-09T12:50:56.991Z</time>
      </trkpt>
      <trkpt lat="45.32502" lon="6.1822">
        <ele>2449</ele>
        <time>2020-02-09T12:51:12.990Z</time>
      </trkpt>
      <trkpt lat="45.32497" lon="6.18232">
        <ele>2451</ele>
        <time>2020-02-09T12:51:27.991Z</time>
      </trkpt>
      <trkpt lat="45.32494" lon="6.18244">
        <ele>2453</ele>
        <time>2020-02-09T12:51:41.990Z</time>
      </trkpt>
      <trkpt lat="45.32488" lon="6.18254">
        <ele>2458</ele>
        <time>2020-02-09T12:52:04.960Z</time>
      </trkpt>
      <trkpt lat="45.32482" lon="6.18264">
        <ele>2459</ele>
        <time>2020-02-09T12:52:18.997Z</time>
      </trkpt>
      <trkpt lat="45.32483" lon="6.18277">
        <ele>2462</ele>
        <time>2020-02-09T12:52:56.991Z</time>
      </trkpt>
      <trkpt lat="45.3249" lon="6.18286">
        <ele>2464</ele>
        <time>2020-02-09T12:53:37.991Z</time>
      </trkpt>
      <trkpt lat="45.32498" lon="6.18293">
        <ele>2465</ele>
        <time>2020-02-09T12:53:48.997Z</time>
      </trkpt>
      <trkpt lat="45.32508" lon="6.18298">
        <ele>2468</ele>
        <time>2020-02-09T12:54:04.991Z</time>
      </trkpt>
      <trkpt lat="45.32517" lon="6.183">
        <ele>2470</ele>
        <time>2020-02-09T12:54:17.956Z</time>
      </trkpt>
      <trkpt lat="45.32526" lon="6.18305">
        <ele>2472</ele>
        <time>2020-02-09T12:54:32.991Z</time>
      </trkpt>
      <trkpt lat="45.32535" lon="6.18305">
        <ele>2477.3619968</ele>
        <time>2020-02-09T12:54:50.992Z</time>
      </trkpt>
      <trkpt lat="45.32544" lon="6.18308">
        <ele>2480</ele>
        <time>2020-02-09T12:55:05.991Z</time>
      </trkpt>
      <trkpt lat="45.32553" lon="6.18314">
        <ele>2483</ele>
        <time>2020-02-09T12:55:24.991Z</time>
      </trkpt>
      <trkpt lat="45.32561" lon="6.1832">
        <ele>2486</ele>
        <time>2020-02-09T12:55:40.991Z</time>
      </trkpt>
      <trkpt lat="45.32554" lon="6.18329">
        <ele>2489</ele>
        <time>2020-02-09T12:56:14.991Z</time>
      </trkpt>
      <trkpt lat="45.32545" lon="6.18334">
        <ele>2493</ele>
        <time>2020-02-09T12:56:30.972Z</time>
      </trkpt>
      <trkpt lat="45.32552" lon="6.18344">
        <ele>2496</ele>
        <time>2020-02-09T12:57:16.991Z</time>
      </trkpt>
      <trkpt lat="45.32561" lon="6.1835">
        <ele>2499</ele>
        <time>2020-02-09T12:57:28.991Z</time>
      </trkpt>
      <trkpt lat="45.32566" lon="6.18361">
        <ele>2503</ele>
        <time>2020-02-09T12:58:01.001Z</time>
      </trkpt>
      <trkpt lat="45.32573" lon="6.1837">
        <ele>2506</ele>
        <time>2020-02-09T12:58:18.001Z</time>
      </trkpt>
      <trkpt lat="45.32579" lon="6.1838">
        <ele>2510</ele>
        <time>2020-02-09T12:58:34.997Z</time>
      </trkpt>
      <trkpt lat="45.32585" lon="6.1839">
        <ele>2512</ele>
        <time>2020-02-09T12:58:51.991Z</time>
      </trkpt>
      <trkpt lat="45.32595" lon="6.18395">
        <ele>2515</ele>
        <time>2020-02-09T12:59:10.991Z</time>
      </trkpt>
      <trkpt lat="45.32604" lon="6.184">
        <ele>2517</ele>
        <time>2020-02-09T12:59:25.991Z</time>
      </trkpt>
      <trkpt lat="45.32613" lon="6.18402">
        <ele>2519</ele>
        <time>2020-02-09T12:59:35.991Z</time>
      </trkpt>
      <trkpt lat="45.32622" lon="6.18407">
        <ele>2523</ele>
        <time>2020-02-09T12:59:51.991Z</time>
      </trkpt>
      <trkpt lat="45.32614" lon="6.18415">
        <ele>2524</ele>
        <time>2020-02-09T13:00:12.987Z</time>
      </trkpt>
      <trkpt lat="45.32621" lon="6.18424">
        <ele>2527.36</ele>
        <time>2020-02-09T13:00:41.990Z</time>
      </trkpt>
      <trkpt lat="45.32626" lon="6.18436">
        <ele>2533</ele>
        <time>2020-02-09T13:01:06.990Z</time>
      </trkpt>
      <trkpt lat="45.32631" lon="6.18446">
        <ele>2536.3609984</ele>
        <time>2020-02-09T13:01:20.991Z</time>
      </trkpt>
      <trkpt lat="45.32637" lon="6.18456">
        <ele>2541</ele>
        <time>2020-02-09T13:01:43.992Z</time>
      </trkpt>
      <trkpt lat="45.32628" lon="6.1846">
        <ele>2542</ele>
        <time>2020-02-09T13:02:09.997Z</time>
      </trkpt>
      <trkpt lat="45.32619" lon="6.18463">
        <ele>2547</ele>
        <time>2020-02-09T13:03:10.987Z</time>
      </trkpt>
      <trkpt lat="45.32628" lon="6.18463">
        <ele>2548</ele>
        <time>2020-02-09T13:04:30.000Z</time>
      </trkpt>
      <trkpt lat="45.32637" lon="6.18468">
        <ele>2550.36</ele>
        <time>2020-02-09T13:06:02.990Z</time>
      </trkpt>
      <trkpt lat="45.32645" lon="6.18472">
        <ele>2553</ele>
        <time>2020-02-09T13:06:17.991Z</time>
      </trkpt>
      <trkpt lat="45.32653" lon="6.18481">
        <ele>2557</ele>
        <time>2020-02-09T13:06:42.990Z</time>
      </trkpt>
      <trkpt lat="45.32651" lon="6.18493">
        <ele>2562.2725123114</ele>
        <time>2020-02-09T13:07:11.987Z</time>
      </trkpt>
      <trkpt lat="45.32644" lon="6.18504">
        <ele>2565</ele>
        <time>2020-02-09T13:07:27.991Z</time>
      </trkpt>
      <trkpt lat="45.32654" lon="6.18509">
        <ele>2567.3900032</ele>
        <time>2020-02-09T13:08:51.020Z</time>
      </trkpt>
      <trkpt lat="45.32663" lon="6.18512">
        <ele>2569</ele>
        <time>2020-02-09T13:08:58.990Z</time>
      </trkpt>
      <trkpt lat="45.3267" lon="6.18521">
        <ele>2569</ele>
        <time>2020-02-09T13:09:10.029Z</time>
      </trkpt>
      <trkpt lat="45.32679" lon="6.18527">
        <ele>2572.2748111742</ele>
        <time>2020-02-09T13:09:20.990Z</time>
      </trkpt>
      <trkpt lat="45.32687" lon="6.18532">
        <ele>2575</ele>
        <time>2020-02-09T13:09:31.989Z</time>
      </trkpt>
      <trkpt lat="45.32695" lon="6.18539">
        <ele>2577.36</ele>
        <time>2020-02-09T13:09:43.990Z</time>
      </trkpt>
      <trkpt lat="45.32703" lon="6.18545">
        <ele>2580</ele>
        <time>2020-02-09T13:09:57.990Z</time>
      </trkpt>
      <trkpt lat="45.3271" lon="6.18555">
        <ele>2581.7419904</ele>
        <time>2020-02-09T13:10:11.001Z</time>
      </trkpt>
      <trkpt lat="45.32717" lon="6.18565">
        <ele>2585</ele>
        <time>2020-02-09T13:10:21.990Z</time>
      </trkpt>
      <trkpt lat="45.32723" lon="6.18574">
        <ele>2587</ele>
        <time>2020-02-09T13:10:31.990Z</time>
      </trkpt>
      <trkpt lat="45.32729" lon="6.18584">
        <ele>2590</ele>
        <time>2020-02-09T13:10:42.987Z</time>
      </trkpt>
      <trkpt lat="45.32736" lon="6.18594">
        <ele>2593</ele>
        <time>2020-02-09T13:10:54.989Z</time>
      </trkpt>
      <trkpt lat="45.32744" lon="6.18591">
        <ele>2599</ele>
        <time>2020-02-09T13:11:23.020Z</time>
      </trkpt>
      <trkpt lat="45.32752" lon="6.18598">
        <ele>2601</ele>
        <time>2020-02-09T13:12:15.990Z</time>
      </trkpt>
      <trkpt lat="45.32761" lon="6.18599">
        <ele>2603</ele>
        <time>2020-02-09T13:12:49.000Z</time>
      </trkpt>
      <trkpt lat="45.32755" lon="6.18589">
        <ele>2605</ele>
        <time>2020-02-09T13:13:17.958Z</time>
      </trkpt>
      <trkpt lat="45.32751" lon="6.18577">
        <ele>2609</ele>
        <time>2020-02-09T13:13:29.988Z</time>
      </trkpt>
      <trkpt lat="45.32747" lon="6.18565">
        <ele>2611</ele>
        <time>2020-02-09T13:13:44.003Z</time>
      </trkpt>
      <trkpt lat="45.32755" lon="6.18558">
        <ele>2616</ele>
        <time>2020-02-09T13:14:22.989Z</time>
      </trkpt>
      <trkpt lat="45.32754" lon="6.18545">
        <ele>2619.2618326429</ele>
        <time>2020-02-09T13:14:33.973Z</time>
      </trkpt>
      <trkpt lat="45.32754" lon="6.18532">
        <ele>2624</ele>
        <time>2020-02-09T13:16:11.988Z</time>
      </trkpt>
      <trkpt lat="45.32756" lon="6.18519">
        <ele>2628</ele>
        <time>2020-02-09T13:17:08.991Z</time>
      </trkpt>
      <trkpt lat="45.32746" lon="6.18506">
        <ele>2629</ele>
        <time>2020-02-09T13:19:18.959Z</time>
      </trkpt>
      <trkpt lat="45.32758" lon="6.18528">
        <ele>2631</ele>
        <time>2020-02-09T13:19:20.997Z</time>
      </trkpt>
      <trkpt lat="45.32765" lon="6.18518">
        <ele>2631</ele>
        <time>2020-02-09T13:19:30.988Z</time>
      </trkpt>
      <trkpt lat="45.32757" lon="6.1851">
        <ele>2631</ele>
        <time>2020-02-09T13:19:54.989Z</time>
      </trkpt>
      <trkpt lat="45.32754" lon="6.18523">
        <ele>2631</ele>
        <time>2020-02-09T13:20:47.001Z</time>
      </trkpt>
      <trkpt lat="45.32755" lon="6.18536">
        <ele>2628.627008</ele>
        <time>2020-02-09T13:25:14.003Z</time>
      </trkpt>
      <trkpt lat="45.32751" lon="6.18548">
        <ele>2626</ele>
        <time>2020-02-09T13:28:48.029Z</time>
      </trkpt>
      <trkpt lat="45.32744" lon="6.18562">
        <ele>2618.1458219339</ele>
        <time>2020-02-09T13:28:58.003Z</time>
      </trkpt>
      <trkpt lat="45.32737" lon="6.18577">
        <ele>2610.28</ele>
        <time>2020-02-09T13:29:00.990Z</time>
      </trkpt>
      <trkpt lat="45.32728" lon="6.18585">
        <ele>2602.534661496</ele>
        <time>2020-02-09T13:29:03.000Z</time>
      </trkpt>
      <trkpt lat="45.32714" lon="6.18568">
        <ele>2597.900996122</ele>
        <time>2020-02-09T13:29:04.990Z</time>
      </trkpt>
      <trkpt lat="45.32704" lon="6.18553">
        <ele>2593.8360192</ele>
        <time>2020-02-09T13:29:07.018Z</time>
      </trkpt>
      <trkpt lat="45.32692" lon="6.18543">
        <ele>2590</ele>
        <time>2020-02-09T13:29:08.990Z</time>
      </trkpt>
      <trkpt lat="45.3268" lon="6.18536">
        <ele>2588.2839936</ele>
        <time>2020-02-09T13:29:10.988Z</time>
      </trkpt>
      <trkpt lat="45.32673" lon="6.18522">
        <ele>2585.4381638217</ele>
        <time>2020-02-09T13:29:12.998Z</time>
      </trkpt>
      <trkpt lat="45.32664" lon="6.18517">
        <ele>2581</ele>
        <time>2020-02-09T13:29:15.988Z</time>
      </trkpt>
      <trkpt lat="45.32672" lon="6.18509">
        <ele>2580.372992</ele>
        <time>2020-02-09T13:29:58.003Z</time>
      </trkpt>
      <trkpt lat="45.32679" lon="6.18501">
        <ele>2581</ele>
        <time>2020-02-09T13:30:08.990Z</time>
      </trkpt>
      <trkpt lat="45.3267" lon="6.18499">
        <ele>2596.3709952</ele>
        <time>2020-02-09T14:12:31.001Z</time>
      </trkpt>
      <trkpt lat="45.32676" lon="6.1851">
        <ele>2595.716798249</ele>
        <time>2020-02-09T14:13:10.001Z</time>
      </trkpt>
      <trkpt lat="45.3268" lon="6.18497">
        <ele>2595</ele>
        <time>2020-02-09T14:14:24.001Z</time>
      </trkpt>
      <trkpt lat="45.32689" lon="6.18495">
        <ele>2596</ele>
        <time>2020-02-09T14:16:23.992Z</time>
      </trkpt>
      <trkpt lat="45.32681" lon="6.18503">
        <ele>2596</ele>
        <time>2020-02-09T14:17:48.990Z</time>
      </trkpt>
      <trkpt lat="45.32673" lon="6.1851">
        <ele>2595</ele>
        <time>2020-02-09T14:19:18.991Z</time>
      </trkpt>
      <trkpt lat="45.32666" lon="6.1852">
        <ele>2593</ele>
        <time>2020-02-09T14:19:24.991Z</time>
      </trkpt>
      <trkpt lat="45.32657" lon="6.18516">
        <ele>2593</ele>
        <time>2020-02-09T14:20:57.991Z</time>
      </trkpt>
      <trkpt lat="45.32645" lon="6.18508">
        <ele>2591</ele>
        <time>2020-02-09T14:21:00.991Z</time>
      </trkpt>
      <trkpt lat="45.32636" lon="6.18503">
        <ele>2590.6390016</ele>
        <time>2020-02-09T14:21:02.991Z</time>
      </trkpt>
      <trkpt lat="45.32624" lon="6.185">
        <ele>2589</ele>
        <time>2020-02-09T14:21:05.991Z</time>
      </trkpt>
      <trkpt lat="45.32614" lon="6.18503">
        <ele>2589</ele>
        <time>2020-02-09T14:21:23.992Z</time>
      </trkpt>
      <trkpt lat="45.32605" lon="6.18508">
        <ele>2589</ele>
        <time>2020-02-09T14:22:12.991Z</time>
      </trkpt>
      <trkpt lat="45.32615" lon="6.1851">
        <ele>2589</ele>
        <time>2020-02-09T14:22:35.991Z</time>
      </trkpt>
      <trkpt lat="45.32613" lon="6.18524">
        <ele>2576.6280064</ele>
        <time>2020-02-09T14:23:05.002Z</time>
      </trkpt>
      <trkpt lat="45.32611" lon="6.18537">
        <ele>2569</ele>
        <time>2020-02-09T14:23:27.997Z</time>
      </trkpt>
      <trkpt lat="45.32604" lon="6.18545">
        <ele>2559</ele>
        <time>2020-02-09T14:23:57.001Z</time>
      </trkpt>
      <trkpt lat="45.3261" lon="6.18556">
        <ele>2554</ele>
        <time>2020-02-09T14:24:05.001Z</time>
      </trkpt>
      <trkpt lat="45.326" lon="6.18561">
        <ele>2550.716798249</ele>
        <time>2020-02-09T14:24:10.001Z</time>
      </trkpt>
      <trkpt lat="45.3259" lon="6.18567">
        <ele>2546.2580096</ele>
        <time>2020-02-09T14:24:14.001Z</time>
      </trkpt>
      <trkpt lat="45.32581" lon="6.18562">
        <ele>2545</ele>
        <time>2020-02-09T14:24:41.989Z</time>
      </trkpt>
      <trkpt lat="45.32589" lon="6.18556">
        <ele>2544</ele>
        <time>2020-02-09T14:25:18.987Z</time>
      </trkpt>
      <trkpt lat="45.32581" lon="6.18548">
        <ele>2545</ele>
        <time>2020-02-09T14:26:36.991Z</time>
      </trkpt>
      <trkpt lat="45.3258" lon="6.18561">
        <ele>2537.286016</ele>
        <time>2020-02-09T14:27:10.987Z</time>
      </trkpt>
      <trkpt lat="45.32581" lon="6.18575">
        <ele>2530.6390016</ele>
        <time>2020-02-09T14:27:13.991Z</time>
      </trkpt>
      <trkpt lat="45.32585" lon="6.18588">
        <ele>2523.9229952</ele>
        <time>2020-02-09T14:27:17.989Z</time>
      </trkpt>
      <trkpt lat="45.32589" lon="6.18601">
        <ele>2518.776508054</ele>
        <time>2020-02-09T14:27:20.001Z</time>
      </trkpt>
      <trkpt lat="45.32582" lon="6.18612">
        <ele>2515.6310016</ele>
        <time>2020-02-09T14:27:24.999Z</time>
      </trkpt>
      <trkpt lat="45.32579" lon="6.18628">
        <ele>2509.572032</ele>
        <time>2020-02-09T14:27:28.987Z</time>
      </trkpt>
      <trkpt lat="45.32573" lon="6.18648">
        <ele>2499.6390016</ele>
        <time>2020-02-09T14:27:31.991Z</time>
      </trkpt>
      <trkpt lat="45.32569" lon="6.18665">
        <ele>2494.1801766591</ele>
        <time>2020-02-09T14:27:33.988Z</time>
      </trkpt>
      <trkpt lat="45.32566" lon="6.18684">
        <ele>2489.2780032</ele>
        <time>2020-02-09T14:27:35.991Z</time>
      </trkpt>
      <trkpt lat="45.32565" lon="6.18702">
        <ele>2483.2819968</ele>
        <time>2020-02-09T14:27:37.989Z</time>
      </trkpt>
      <trkpt lat="45.32561" lon="6.18715">
        <ele>2481</ele>
        <time>2020-02-09T14:27:39.997Z</time>
      </trkpt>
      <trkpt lat="45.32556" lon="6.18729">
        <ele>2477.7259509688</ele>
        <time>2020-02-09T14:27:42.989Z</time>
      </trkpt>
      <trkpt lat="45.3256" lon="6.18712">
        <ele>2475</ele>
        <time>2020-02-09T14:27:53.001Z</time>
      </trkpt>
      <trkpt lat="45.3257" lon="6.18711">
        <ele>2475.283201751</ele>
        <time>2020-02-09T14:27:58.001Z</time>
      </trkpt>
      <trkpt lat="45.32576" lon="6.18702">
        <ele>2475</ele>
        <time>2020-02-09T14:28:37.989Z</time>
      </trkpt>
      <trkpt lat="45.3257" lon="6.18711">
        <ele>2475</ele>
        <time>2020-02-09T14:28:58.989Z</time>
      </trkpt>
      <trkpt lat="45.32566" lon="6.18726">
        <ele>2469.4519019376</ele>
        <time>2020-02-09T14:29:02.989Z</time>
      </trkpt>
      <trkpt lat="45.32559" lon="6.18739">
        <ele>2463.9259904</ele>
        <time>2020-02-09T14:29:04.988Z</time>
      </trkpt>
      <trkpt lat="45.32556" lon="6.18758">
        <ele>2458.8779904</ele>
        <time>2020-02-09T14:29:07.004Z</time>
      </trkpt>
      <trkpt lat="45.32549" lon="6.18771">
        <ele>2452.643008</ele>
        <time>2020-02-09T14:29:08.987Z</time>
      </trkpt>
      <trkpt lat="45.32541" lon="6.18784">
        <ele>2450</ele>
        <time>2020-02-09T14:29:12.003Z</time>
      </trkpt>
      <trkpt lat="45.32533" lon="6.1879">
        <ele>2449</ele>
        <time>2020-02-09T14:29:21.997Z</time>
      </trkpt>
      <trkpt lat="45.32536" lon="6.18803">
        <ele>2448</ele>
        <time>2020-02-09T14:30:27.991Z</time>
      </trkpt>
      <trkpt lat="45.32529" lon="6.18814">
        <ele>2447</ele>
        <time>2020-02-09T14:30:34.988Z</time>
      </trkpt>
      <trkpt lat="45.32526" lon="6.18829">
        <ele>2445.6420096</ele>
        <time>2020-02-09T14:30:47.988Z</time>
      </trkpt>
      <trkpt lat="45.32519" lon="6.18843">
        <ele>2444</ele>
        <time>2020-02-09T14:30:50.991Z</time>
      </trkpt>
      <trkpt lat="45.32512" lon="6.1886">
        <ele>2441.2840192</ele>
        <time>2020-02-09T14:30:53.988Z</time>
      </trkpt>
      <trkpt lat="45.32514" lon="6.18877">
        <ele>2435.2519936</ele>
        <time>2020-02-09T14:30:57.004Z</time>
      </trkpt>
      <trkpt lat="45.32521" lon="6.18895">
        <ele>2429.5679872</ele>
        <time>2020-02-09T14:30:58.988Z</time>
      </trkpt>
      <trkpt lat="45.32526" lon="6.18907">
        <ele>2425.9038145861</ele>
        <time>2020-02-09T14:30:59.989Z</time>
      </trkpt>
      <trkpt lat="45.32532" lon="6.18928">
        <ele>2421.6290048</ele>
        <time>2020-02-09T14:31:02.001Z</time>
      </trkpt>
      <trkpt lat="45.32523" lon="6.18943">
        <ele>2419.6390016</ele>
        <time>2020-02-09T14:31:03.991Z</time>
      </trkpt>
      <trkpt lat="45.32516" lon="6.18957">
        <ele>2418.6484924493</ele>
        <time>2020-02-09T14:31:05.988Z</time>
      </trkpt>
      <trkpt lat="45.32507" lon="6.18973">
        <ele>2416.7843423011</ele>
        <time>2020-02-09T14:31:07.988Z</time>
      </trkpt>
      <trkpt lat="45.32501" lon="6.1899">
        <ele>2415.6425747091</ele>
        <time>2020-02-09T14:31:09.991Z</time>
      </trkpt>
      <trkpt lat="45.32494" lon="6.19006">
        <ele>2412.264</ele>
        <time>2020-02-09T14:31:11.998Z</time>
      </trkpt>
      <trkpt lat="45.32489" lon="6.19021">
        <ele>2409.6420096</ele>
        <time>2020-02-09T14:31:13.988Z</time>
      </trkpt>
      <trkpt lat="45.32482" lon="6.19033">
        <ele>2409</ele>
        <time>2020-02-09T14:31:15.988Z</time>
      </trkpt>
      <trkpt lat="45.32478" lon="6.19044">
        <ele>2408</ele>
        <time>2020-02-09T14:31:17.991Z</time>
      </trkpt>
      <trkpt lat="45.32473" lon="6.19056">
        <ele>2407</ele>
        <time>2020-02-09T14:31:20.988Z</time>
      </trkpt>
      <trkpt lat="45.32478" lon="6.1907">
        <ele>2402.5680384</ele>
        <time>2020-02-09T14:32:19.988Z</time>
      </trkpt>
      <trkpt lat="45.3249" lon="6.19077">
        <ele>2396.1526811538</ele>
        <time>2020-02-09T14:32:22.000Z</time>
      </trkpt>
      <trkpt lat="45.32502" lon="6.19088">
        <ele>2388.9007660439</ele>
        <time>2020-02-09T14:32:23.990Z</time>
      </trkpt>
      <trkpt lat="45.32514" lon="6.19099">
        <ele>2384.5560064</ele>
        <time>2020-02-09T14:32:25.991Z</time>
      </trkpt>
      <trkpt lat="45.32527" lon="6.19108">
        <ele>2376.204992</ele>
        <time>2020-02-09T14:32:27.989Z</time>
      </trkpt>
      <trkpt lat="45.3254" lon="6.19118">
        <ele>2367.9038145861</ele>
        <time>2020-02-09T14:32:29.989Z</time>
      </trkpt>
      <trkpt lat="45.32549" lon="6.19119">
        <ele>2364.7869624903</ele>
        <time>2020-02-09T14:32:30.989Z</time>
      </trkpt>
      <trkpt lat="45.32559" lon="6.1913">
        <ele>2356.92</ele>
        <time>2020-02-09T14:32:32.990Z</time>
      </trkpt>
      <trkpt lat="45.3257" lon="6.19146">
        <ele>2351.2871264543</ele>
        <time>2020-02-09T14:32:34.990Z</time>
      </trkpt>
      <trkpt lat="45.32567" lon="6.19161">
        <ele>2347.4351152497</ele>
        <time>2020-02-09T14:32:37.000Z</time>
      </trkpt>
      <trkpt lat="45.32574" lon="6.19177">
        <ele>2336.9170048</ele>
        <time>2020-02-09T14:32:40.991Z</time>
      </trkpt>
      <trkpt lat="45.32577" lon="6.19196">
        <ele>2329.9007553032</ele>
        <time>2020-02-09T14:32:42.990Z</time>
      </trkpt>
      <trkpt lat="45.3258" lon="6.19208">
        <ele>2327</ele>
        <time>2020-02-09T14:32:43.989Z</time>
      </trkpt>
      <trkpt lat="45.32583" lon="6.19231">
        <ele>2321.6259575549</ele>
        <time>2020-02-09T14:32:45.990Z</time>
      </trkpt>
      <trkpt lat="45.32593" lon="6.19243">
        <ele>2312.56</ele>
        <time>2020-02-09T14:32:47.990Z</time>
      </trkpt>
      <trkpt lat="45.32604" lon="6.19252">
        <ele>2306.28</ele>
        <time>2020-02-09T14:32:49.990Z</time>
      </trkpt>
      <trkpt lat="45.32613" lon="6.19251">
        <ele>2302.6420096</ele>
        <time>2020-02-09T14:32:53.988Z</time>
      </trkpt>
      <trkpt lat="45.32604" lon="6.19245">
        <ele>2302</ele>
        <time>2020-02-09T14:33:42.001Z</time>
      </trkpt>
      <trkpt lat="45.32612" lon="6.19239">
        <ele>2302.6420096</ele>
        <time>2020-02-09T14:33:49.988Z</time>
      </trkpt>
      <trkpt lat="45.32621" lon="6.19234">
        <ele>2302</ele>
        <time>2020-02-09T14:33:57.003Z</time>
      </trkpt>
      <trkpt lat="45.32613" lon="6.19242">
        <ele>2302</ele>
        <time>2020-02-09T14:34:10.001Z</time>
      </trkpt>
      <trkpt lat="45.32608" lon="6.19254">
        <ele>2301</ele>
        <time>2020-02-09T14:34:22.989Z</time>
      </trkpt>
      <trkpt lat="45.32603" lon="6.19269">
        <ele>2300.7183197678</ele>
        <time>2020-02-09T14:34:28.999Z</time>
      </trkpt>
      <trkpt lat="45.32598" lon="6.19282">
        <ele>2298</ele>
        <time>2020-02-09T14:34:31.992Z</time>
      </trkpt>
      <trkpt lat="45.32596" lon="6.19297">
        <ele>2296.6419968</ele>
        <time>2020-02-09T14:34:34.988Z</time>
      </trkpt>
      <trkpt lat="45.32602" lon="6.19309">
        <ele>2294</ele>
        <time>2020-02-09T14:34:37.990Z</time>
      </trkpt>
      <trkpt lat="45.32612" lon="6.19316">
        <ele>2288.8459904</ele>
        <time>2020-02-09T14:34:39.989Z</time>
      </trkpt>
      <trkpt lat="45.32627" lon="6.1932">
        <ele>2279.9007660439</ele>
        <time>2020-02-09T14:34:41.990Z</time>
      </trkpt>
      <trkpt lat="45.3264" lon="6.19331">
        <ele>2270.8900096</ele>
        <time>2020-02-09T14:34:44.000Z</time>
      </trkpt>
      <trkpt lat="45.32654" lon="6.19341">
        <ele>2265.9260288</ele>
        <time>2020-02-09T14:34:45.988Z</time>
      </trkpt>
      <trkpt lat="45.32657" lon="6.1936">
        <ele>2260.4534511061</ele>
        <time>2020-02-09T14:34:47.988Z</time>
      </trkpt>
      <trkpt lat="45.32657" lon="6.19376">
        <ele>2257.6409984</ele>
        <time>2020-02-09T14:34:49.989Z</time>
      </trkpt>
      <trkpt lat="45.3266" lon="6.19391">
        <ele>2251.92</ele>
        <time>2020-02-09T14:34:52.990Z</time>
      </trkpt>
      <trkpt lat="45.32669" lon="6.19401">
        <ele>2243.725191511</ele>
        <time>2020-02-09T14:34:55.990Z</time>
      </trkpt>
      <trkpt lat="45.32673" lon="6.19412">
        <ele>2238</ele>
        <time>2020-02-09T14:35:07.989Z</time>
      </trkpt>
      <trkpt lat="45.32662" lon="6.19422">
        <ele>2236.6455529364</ele>
        <time>2020-02-09T14:36:05.988Z</time>
      </trkpt>
      <trkpt lat="45.32656" lon="6.19431">
        <ele>2235.6409984</ele>
        <time>2020-02-09T14:36:07.989Z</time>
      </trkpt>
      <trkpt lat="45.32648" lon="6.19448">
        <ele>2233.6390016</ele>
        <time>2020-02-09T14:36:10.991Z</time>
      </trkpt>
      <trkpt lat="45.32643" lon="6.19462">
        <ele>2232</ele>
        <time>2020-02-09T14:36:12.991Z</time>
      </trkpt>
      <trkpt lat="45.32639" lon="6.19478">
        <ele>2230.4575709091</ele>
        <time>2020-02-09T14:36:14.988Z</time>
      </trkpt>
      <trkpt lat="45.32635" lon="6.19498">
        <ele>2226.2839936</ele>
        <time>2020-02-09T14:36:16.988Z</time>
      </trkpt>
      <trkpt lat="45.32628" lon="6.1952">
        <ele>2223.6290048</ele>
        <time>2020-02-09T14:36:19.001Z</time>
      </trkpt>
      <trkpt lat="45.32622" lon="6.19537">
        <ele>2223</ele>
        <time>2020-02-09T14:36:20.988Z</time>
      </trkpt>
      <trkpt lat="45.32619" lon="6.19552">
        <ele>2221.5200128</ele>
        <time>2020-02-09T14:36:24.000Z</time>
      </trkpt>
      <trkpt lat="45.32618" lon="6.19571">
        <ele>2214.6440064</ele>
        <time>2020-02-09T14:36:26.986Z</time>
      </trkpt>
      <trkpt lat="45.32613" lon="6.1959">
        <ele>2212.2560128</ele>
        <time>2020-02-09T14:36:29.002Z</time>
      </trkpt>
      <trkpt lat="45.32609" lon="6.1961">
        <ele>2209.5712544742</ele>
        <time>2020-02-09T14:36:30.988Z</time>
      </trkpt>
      <trkpt lat="45.32605" lon="6.1963">
        <ele>2207.3019689535</ele>
        <time>2020-02-09T14:36:32.986Z</time>
      </trkpt>
      <trkpt lat="45.326" lon="6.19652">
        <ele>2204.2839936</ele>
        <time>2020-02-09T14:36:34.988Z</time>
      </trkpt>
      <trkpt lat="45.32596" lon="6.19674">
        <ele>2201.4606157576</ele>
        <time>2020-02-09T14:36:36.986Z</time>
      </trkpt>
      <trkpt lat="45.32594" lon="6.19694">
        <ele>2198.6290048</ele>
        <time>2020-02-09T14:36:39.001Z</time>
      </trkpt>
      <trkpt lat="45.32593" lon="6.19714">
        <ele>2195.9320192</ele>
        <time>2020-02-09T14:36:40.986Z</time>
      </trkpt>
      <trkpt lat="45.32592" lon="6.19736">
        <ele>2192.7338473051</ele>
        <time>2020-02-09T14:36:42.986Z</time>
      </trkpt>
      <trkpt lat="45.32591" lon="6.19753">
        <ele>2192</ele>
        <time>2020-02-09T14:36:44.988Z</time>
      </trkpt>
      <trkpt lat="45.32593" lon="6.19767">
        <ele>2191</ele>
        <time>2020-02-09T14:36:46.988Z</time>
      </trkpt>
      <trkpt lat="45.32592" lon="6.19782">
        <ele>2189.6343478486</ele>
        <time>2020-02-09T14:36:49.002Z</time>
      </trkpt>
      <trkpt lat="45.3259" lon="6.19795">
        <ele>2189</ele>
        <time>2020-02-09T14:36:50.992Z</time>
      </trkpt>
      <trkpt lat="45.32585" lon="6.19808">
        <ele>2188.7236645398</ele>
        <time>2020-02-09T14:36:52.992Z</time>
      </trkpt>
      <trkpt lat="45.3258" lon="6.19819">
        <ele>2188</ele>
        <time>2020-02-09T14:36:54.988Z</time>
      </trkpt>
      <trkpt lat="45.32572" lon="6.19835">
        <ele>2187</ele>
        <time>2020-02-09T14:36:57.992Z</time>
      </trkpt>
      <trkpt lat="45.32564" lon="6.19848">
        <ele>2184.9170048</ele>
        <time>2020-02-09T14:36:59.991Z</time>
      </trkpt>
      <trkpt lat="45.32562" lon="6.19863">
        <ele>2182.2840192</ele>
        <time>2020-02-09T14:37:01.988Z</time>
      </trkpt>
      <trkpt lat="45.32569" lon="6.19878">
        <ele>2177.717430303</ele>
        <time>2020-02-09T14:37:04.003Z</time>
      </trkpt>
      <trkpt lat="45.3257" lon="6.199">
        <ele>2175.6420096</ele>
        <time>2020-02-09T14:37:05.988Z</time>
      </trkpt>
      <trkpt lat="45.32568" lon="6.19916">
        <ele>2174.6380032</ele>
        <time>2020-02-09T14:37:07.992Z</time>
      </trkpt>
      <trkpt lat="45.32564" lon="6.19929">
        <ele>2174</ele>
        <time>2020-02-09T14:37:12.989Z</time>
      </trkpt>
      <trkpt lat="45.32563" lon="6.19942">
        <ele>2174</ele>
        <time>2020-02-09T14:37:28.997Z</time>
      </trkpt>
      <trkpt lat="45.3256" lon="6.19957">
        <ele>2172</ele>
        <time>2020-02-09T14:37:31.992Z</time>
      </trkpt>
      <trkpt lat="45.32557" lon="6.19976">
        <ele>2170.6380032</ele>
        <time>2020-02-09T14:37:34.992Z</time>
      </trkpt>
      <trkpt lat="45.32554" lon="6.19993">
        <ele>2167.643008</ele>
        <time>2020-02-09T14:37:36.987Z</time>
      </trkpt>
      <trkpt lat="45.32551" lon="6.2001">
        <ele>2165.717430303</ele>
        <time>2020-02-09T14:37:39.003Z</time>
      </trkpt>
      <trkpt lat="45.32549" lon="6.20025">
        <ele>2163.6390016</ele>
        <time>2020-02-09T14:37:40.991Z</time>
      </trkpt>
      <trkpt lat="45.32546" lon="6.20039">
        <ele>2162</ele>
        <time>2020-02-09T14:37:42.992Z</time>
      </trkpt>
      <trkpt lat="45.32544" lon="6.20053">
        <ele>2161</ele>
        <time>2020-02-09T14:37:44.987Z</time>
      </trkpt>
      <trkpt lat="45.32543" lon="6.20067">
        <ele>2159.72576</ele>
        <time>2020-02-09T14:37:46.992Z</time>
      </trkpt>
      <trkpt lat="45.32542" lon="6.20081">
        <ele>2157.7152711959</ele>
        <time>2020-02-09T14:37:49.003Z</time>
      </trkpt>
      <trkpt lat="45.32545" lon="6.20099">
        <ele>2156</ele>
        <time>2020-02-09T14:37:51.988Z</time>
      </trkpt>
      <trkpt lat="45.32546" lon="6.20116">
        <ele>2155.6484795201</ele>
        <time>2020-02-09T14:37:54.988Z</time>
      </trkpt>
      <trkpt lat="45.32547" lon="6.20134">
        <ele>2154.643008</ele>
        <time>2020-02-09T14:37:57.987Z</time>
      </trkpt>
      <trkpt lat="45.32548" lon="6.20147">
        <ele>2152.726725553</ele>
        <time>2020-02-09T14:37:59.988Z</time>
      </trkpt>
      <trkpt lat="45.32548" lon="6.2016">
        <ele>2152</ele>
        <time>2020-02-09T14:38:01.988Z</time>
      </trkpt>
      <trkpt lat="45.32548" lon="6.20175">
        <ele>2150.627008</ele>
        <time>2020-02-09T14:38:04.003Z</time>
      </trkpt>
      <trkpt lat="45.32548" lon="6.20188">
        <ele>2149.7215395522</ele>
        <time>2020-02-09T14:38:05.992Z</time>
      </trkpt>
      <trkpt lat="45.32547" lon="6.20201">
        <ele>2148</ele>
        <time>2020-02-09T14:38:07.992Z</time>
      </trkpt>
      <trkpt lat="45.32546" lon="6.20214">
        <ele>2146.7236672399</ele>
        <time>2020-02-09T14:38:09.992Z</time>
      </trkpt>
      <trkpt lat="45.32545" lon="6.2023">
        <ele>2146</ele>
        <time>2020-02-09T14:38:11.992Z</time>
      </trkpt>
      <trkpt lat="45.32544" lon="6.20246">
        <ele>2145</ele>
        <time>2020-02-09T14:38:14.003Z</time>
      </trkpt>
      <trkpt lat="45.32543" lon="6.2026">
        <ele>2143.2760064</ele>
        <time>2020-02-09T14:38:15.992Z</time>
      </trkpt>
      <trkpt lat="45.32541" lon="6.20276">
        <ele>2141</ele>
        <time>2020-02-09T14:38:17.992Z</time>
      </trkpt>
      <trkpt lat="45.3254" lon="6.20292">
        <ele>2139.726725553</ele>
        <time>2020-02-09T14:38:19.988Z</time>
      </trkpt>
      <trkpt lat="45.32539" lon="6.20306">
        <ele>2138.6420096</ele>
        <time>2020-02-09T14:38:21.988Z</time>
      </trkpt>
      <trkpt lat="45.32538" lon="6.20323">
        <ele>2137</ele>
        <time>2020-02-09T14:38:24.992Z</time>
      </trkpt>
      <trkpt lat="45.32537" lon="6.20339">
        <ele>2137</ele>
        <time>2020-02-09T14:38:27.988Z</time>
      </trkpt>
      <trkpt lat="45.32536" lon="6.20353">
        <ele>2136.7244293754</ele>
        <time>2020-02-09T14:38:29.991Z</time>
      </trkpt>
      <trkpt lat="45.32537" lon="6.20367">
        <ele>2134.6420096</ele>
        <time>2020-02-09T14:38:31.988Z</time>
      </trkpt>
      <trkpt lat="45.32536" lon="6.20381">
        <ele>2134</ele>
        <time>2020-02-09T14:38:34.003Z</time>
      </trkpt>
      <trkpt lat="45.32535" lon="6.20395">
        <ele>2134</ele>
        <time>2020-02-09T14:38:35.988Z</time>
      </trkpt>
      <trkpt lat="45.32534" lon="6.20408">
        <ele>2134</ele>
        <time>2020-02-09T14:38:37.988Z</time>
      </trkpt>
      <trkpt lat="45.32531" lon="6.20425">
        <ele>2133</ele>
        <time>2020-02-09T14:38:40.988Z</time>
      </trkpt>
      <trkpt lat="45.32528" lon="6.20438">
        <ele>2132</ele>
        <time>2020-02-09T14:38:44.002Z</time>
      </trkpt>
      <trkpt lat="45.32525" lon="6.20451">
        <ele>2131</ele>
        <time>2020-02-09T14:38:46.988Z</time>
      </trkpt>
      <trkpt lat="45.32522" lon="6.20467">
        <ele>2129.6420096</ele>
        <time>2020-02-09T14:38:49.988Z</time>
      </trkpt>
      <trkpt lat="45.32519" lon="6.20485">
        <ele>2128</ele>
        <time>2020-02-09T14:38:52.991Z</time>
      </trkpt>
      <trkpt lat="45.32516" lon="6.20501">
        <ele>2128</ele>
        <time>2020-02-09T14:38:55.991Z</time>
      </trkpt>
      <trkpt lat="45.32515" lon="6.20514">
        <ele>2127</ele>
        <time>2020-02-09T14:39:42.991Z</time>
      </trkpt>
      <trkpt lat="45.32507" lon="6.20522">
        <ele>2127</ele>
        <time>2020-02-09T14:40:20.987Z</time>
      </trkpt>
      <trkpt lat="45.3251" lon="6.20539">
        <ele>2122.8840192</ele>
        <time>2020-02-09T14:40:24.002Z</time>
      </trkpt>
      <trkpt lat="45.32517" lon="6.20552">
        <ele>2118.1715306906</ele>
        <time>2020-02-09T14:40:25.989Z</time>
      </trkpt>
      <trkpt lat="45.32526" lon="6.2056">
        <ele>2111.5639936</ele>
        <time>2020-02-09T14:40:27.989Z</time>
      </trkpt>
      <trkpt lat="45.32542" lon="6.20568">
        <ele>2104.9229952</ele>
        <time>2020-02-09T14:40:29.989Z</time>
      </trkpt>
      <trkpt lat="45.32557" lon="6.20575">
        <ele>2098.5639936</ele>
        <time>2020-02-09T14:40:31.989Z</time>
      </trkpt>
      <trkpt lat="45.32567" lon="6.20589">
        <ele>2091.8646147181</ele>
        <time>2020-02-09T14:40:33.999Z</time>
      </trkpt>
      <trkpt lat="45.32575" lon="6.20604">
        <ele>2085.2819968</ele>
        <time>2020-02-09T14:40:35.989Z</time>
      </trkpt>
      <trkpt lat="45.32582" lon="6.2062">
        <ele>2081.4534511061</ele>
        <time>2020-02-09T14:40:37.988Z</time>
      </trkpt>
      <trkpt lat="45.3258" lon="6.2064">
        <ele>2078.6551075585</ele>
        <time>2020-02-09T14:40:39.988Z</time>
      </trkpt>
      <trkpt lat="45.32575" lon="6.20654">
        <ele>2076.726725553</ele>
        <time>2020-02-09T14:40:41.988Z</time>
      </trkpt>
      <trkpt lat="45.3258" lon="6.20669">
        <ele>2071.2819968</ele>
        <time>2020-02-09T14:40:45.989Z</time>
      </trkpt>
      <trkpt lat="45.32583" lon="6.20684">
        <ele>2067.9653226754</ele>
        <time>2020-02-09T14:40:47.988Z</time>
      </trkpt>
      <trkpt lat="45.32589" lon="6.20704">
        <ele>2061.2819968</ele>
        <time>2020-02-09T14:40:49.989Z</time>
      </trkpt>
      <trkpt lat="45.32593" lon="6.20727">
        <ele>2056.1824630657</ele>
        <time>2020-02-09T14:40:51.987Z</time>
      </trkpt>
      <trkpt lat="45.32598" lon="6.20749">
        <ele>2049.881024</ele>
        <time>2020-02-09T14:40:54.003Z</time>
      </trkpt>
      <trkpt lat="45.32598" lon="6.20762">
        <ele>2047.2819968</ele>
        <time>2020-02-09T14:40:54.989Z</time>
      </trkpt>
      <trkpt lat="45.32596" lon="6.20787">
        <ele>2044.5712544742</ele>
        <time>2020-02-09T14:40:56.988Z</time>
      </trkpt>
      <trkpt lat="45.32596" lon="6.20801">
        <ele>2043.3748629943</ele>
        <time>2020-02-09T14:40:57.987Z</time>
      </trkpt>
      <trkpt lat="45.32598" lon="6.20815">
        <ele>2041.8890958862</ele>
        <time>2020-02-09T14:40:59.004Z</time>
      </trkpt>
      <trkpt lat="45.32599" lon="6.20829">
        <ele>2038.2222279686</ele>
        <time>2020-02-09T14:40:59.992Z</time>
      </trkpt>
      <trkpt lat="45.326" lon="6.20843">
        <ele>2034.6419968</ele>
        <time>2020-02-09T14:41:00.988Z</time>
      </trkpt>
      <trkpt lat="45.326" lon="6.20857">
        <ele>2033.1732881263</ele>
        <time>2020-02-09T14:41:01.991Z</time>
      </trkpt>
      <trkpt lat="45.32601" lon="6.20871">
        <ele>2030.7782807109</ele>
        <time>2020-02-09T14:41:02.991Z</time>
      </trkpt>
      <trkpt lat="45.32602" lon="6.20886">
        <ele>2027.632</ele>
        <time>2020-02-09T14:41:03.998Z</time>
      </trkpt>
      <trkpt lat="45.32604" lon="6.209">
        <ele>2026.286016</ele>
        <time>2020-02-09T14:41:04.987Z</time>
      </trkpt>
      <trkpt lat="45.32606" lon="6.20914">
        <ele>2024.6409984</ele>
        <time>2020-02-09T14:41:05.989Z</time>
      </trkpt>
      <trkpt lat="45.32607" lon="6.20928">
        <ele>2023.7280290909</ele>
        <time>2020-02-09T14:41:06.989Z</time>
      </trkpt>
      <trkpt lat="45.32608" lon="6.20941">
        <ele>2022.9441317647</ele>
        <time>2020-02-09T14:41:07.988Z</time>
      </trkpt>
      <trkpt lat="45.32611" lon="6.20964">
        <ele>2020.6409984</ele>
        <time>2020-02-09T14:41:09.989Z</time>
      </trkpt>
      <trkpt lat="45.32613" lon="6.20984">
        <ele>2020</ele>
        <time>2020-02-09T14:41:11.988Z</time>
      </trkpt>
      <trkpt lat="45.32615" lon="6.21">
        <ele>2019.715273978</ele>
        <time>2020-02-09T14:41:14.003Z</time>
      </trkpt>
      <trkpt lat="45.32618" lon="6.21012">
        <ele>2019</ele>
        <time>2020-02-09T14:41:15.988Z</time>
      </trkpt>
      <trkpt lat="45.32625" lon="6.21022">
        <ele>2019</ele>
        <time>2020-02-09T14:41:19.989Z</time>
      </trkpt>
      <trkpt lat="45.32631" lon="6.21033">
        <ele>2019</ele>
        <time>2020-02-09T14:41:24.989Z</time>
      </trkpt>
      <trkpt lat="45.32639" lon="6.21043">
        <ele>2019</ele>
        <time>2020-02-09T14:41:31.987Z</time>
      </trkpt>
      <trkpt lat="45.32641" lon="6.21056">
        <ele>2019</ele>
        <time>2020-02-09T14:41:37.987Z</time>
      </trkpt>
      <trkpt lat="45.32645" lon="6.21068">
        <ele>2018</ele>
        <time>2020-02-09T14:41:44.992Z</time>
      </trkpt>
      <trkpt lat="45.3265" lon="6.2108">
        <ele>2018</ele>
        <time>2020-02-09T14:41:50.988Z</time>
      </trkpt>
      <trkpt lat="45.32652" lon="6.21094">
        <ele>2018</ele>
        <time>2020-02-09T14:41:57.988Z</time>
      </trkpt>
      <trkpt lat="45.32655" lon="6.21108">
        <ele>2017</ele>
        <time>2020-02-09T14:42:05.987Z</time>
      </trkpt>
      <trkpt lat="45.32661" lon="6.2112">
        <ele>2017</ele>
        <time>2020-02-09T14:42:09.989Z</time>
      </trkpt>
      <trkpt lat="45.32654" lon="6.2113">
        <ele>2015.6290048</ele>
        <time>2020-02-09T14:45:01.001Z</time>
      </trkpt>
      <trkpt lat="45.3265" lon="6.21141">
        <ele>2013.2580096</ele>
        <time>2020-02-09T14:45:03.001Z</time>
      </trkpt>
      <trkpt lat="45.32644" lon="6.21154">
        <ele>2011</ele>
        <time>2020-02-09T14:45:06.001Z</time>
      </trkpt>
      <trkpt lat="45.32637" lon="6.21166">
        <ele>2009.64</ele>
        <time>2020-02-09T14:45:08.990Z</time>
      </trkpt>
      <trkpt lat="45.32631" lon="6.21177">
        <ele>2009</ele>
        <time>2020-02-09T14:45:11.990Z</time>
      </trkpt>
      <trkpt lat="45.32629" lon="6.21191">
        <ele>2004.929024</ele>
        <time>2020-02-09T14:45:15.987Z</time>
      </trkpt>
      <trkpt lat="45.32633" lon="6.21204">
        <ele>2000.2626189491</ele>
        <time>2020-02-09T14:45:18.005Z</time>
      </trkpt>
      <trkpt lat="45.32623" lon="6.21219">
        <ele>1997.6420096</ele>
        <time>2020-02-09T14:45:19.988Z</time>
      </trkpt>
      <trkpt lat="45.32618" lon="6.21237">
        <ele>1994.4560581818</ele>
        <time>2020-02-09T14:45:21.989Z</time>
      </trkpt>
      <trkpt lat="45.32621" lon="6.21257">
        <ele>1992</ele>
        <time>2020-02-09T14:45:23.988Z</time>
      </trkpt>
      <trkpt lat="45.32617" lon="6.21272">
        <ele>1990.2819968</ele>
        <time>2020-02-09T14:45:25.989Z</time>
      </trkpt>
      <trkpt lat="45.32612" lon="6.21286">
        <ele>1985.254016</ele>
        <time>2020-02-09T14:45:28.003Z</time>
      </trkpt>
      <trkpt lat="45.3261" lon="6.21304">
        <ele>1980.1863854545</ele>
        <time>2020-02-09T14:45:29.988Z</time>
      </trkpt>
      <trkpt lat="45.32607" lon="6.21329">
        <ele>1975.286016</ele>
        <time>2020-02-09T14:45:31.987Z</time>
      </trkpt>
      <trkpt lat="45.32606" lon="6.21343">
        <ele>1972.8779904</ele>
        <time>2020-02-09T14:45:33.004Z</time>
      </trkpt>
      <trkpt lat="45.32605" lon="6.21358">
        <ele>1969.9229952</ele>
        <time>2020-02-09T14:45:33.989Z</time>
      </trkpt>
      <trkpt lat="45.32603" lon="6.21371">
        <ele>1967.1824550775</ele>
        <time>2020-02-09T14:45:34.987Z</time>
      </trkpt>
      <trkpt lat="45.32603" lon="6.21386">
        <ele>1964.7956480606</ele>
        <time>2020-02-09T14:45:35.987Z</time>
      </trkpt>
      <trkpt lat="45.32602" lon="6.21402">
        <ele>1960.9229952</ele>
        <time>2020-02-09T14:45:36.989Z</time>
      </trkpt>
      <trkpt lat="45.32601" lon="6.21419">
        <ele>1957.8840192</ele>
        <time>2020-02-09T14:45:38.002Z</time>
      </trkpt>
      <trkpt lat="45.32597" lon="6.21435">
        <ele>1955.286016</ele>
        <time>2020-02-09T14:45:38.987Z</time>
      </trkpt>
      <trkpt lat="45.32593" lon="6.21451">
        <ele>1953.4549753772</ele>
        <time>2020-02-09T14:45:39.987Z</time>
      </trkpt>
      <trkpt lat="45.32588" lon="6.21466">
        <ele>1951.8579749935</ele>
        <time>2020-02-09T14:45:40.989Z</time>
      </trkpt>
      <trkpt lat="45.32583" lon="6.21481">
        <ele>1949.7274876886</ele>
        <time>2020-02-09T14:45:41.987Z</time>
      </trkpt>
      <trkpt lat="45.3258" lon="6.21497">
        <ele>1949</ele>
        <time>2020-02-09T14:45:43.002Z</time>
      </trkpt>
      <trkpt lat="45.32577" lon="6.21512">
        <ele>1948.4549753772</ele>
        <time>2020-02-09T14:45:43.987Z</time>
      </trkpt>
      <trkpt lat="45.32573" lon="6.21526">
        <ele>1946.8579749935</ele>
        <time>2020-02-09T14:45:44.989Z</time>
      </trkpt>
      <trkpt lat="45.32571" lon="6.21541">
        <ele>1944.643008</ele>
        <time>2020-02-09T14:45:45.987Z</time>
      </trkpt>
      <trkpt lat="45.3257" lon="6.21554">
        <ele>1943.6409984</ele>
        <time>2020-02-09T14:45:46.989Z</time>
      </trkpt>
      <trkpt lat="45.32571" lon="6.21567">
        <ele>1943</ele>
        <time>2020-02-09T14:45:47.999Z</time>
      </trkpt>
      <trkpt lat="45.32572" lon="6.21589">
        <ele>1943</ele>
        <time>2020-02-09T14:45:49.988Z</time>
      </trkpt>
      <trkpt lat="45.32573" lon="6.21608">
        <ele>1942</ele>
        <time>2020-02-09T14:45:51.988Z</time>
      </trkpt>
      <trkpt lat="45.32574" lon="6.21625">
        <ele>1940.643008</ele>
        <time>2020-02-09T14:45:53.987Z</time>
      </trkpt>
      <trkpt lat="45.32574" lon="6.2164">
        <ele>1940</ele>
        <time>2020-02-09T14:45:55.992Z</time>
      </trkpt>
      <trkpt lat="45.32574" lon="6.21654">
        <ele>1940</ele>
        <time>2020-02-09T14:45:58.004Z</time>
      </trkpt>
      <trkpt lat="45.32571" lon="6.21669">
        <ele>1940</ele>
        <time>2020-02-09T14:46:00.990Z</time>
      </trkpt>
      <trkpt lat="45.32562" lon="6.21675">
        <ele>1941</ele>
        <time>2020-02-09T14:46:10.988Z</time>
      </trkpt>
      <trkpt lat="45.32566" lon="6.21688">
        <ele>1938.6419968</ele>
        <time>2020-02-09T14:46:40.988Z</time>
      </trkpt>
      <trkpt lat="45.32568" lon="6.21705">
        <ele>1937.7253894173</ele>
        <time>2020-02-09T14:46:43.987Z</time>
      </trkpt>
      <trkpt lat="45.32568" lon="6.21723">
        <ele>1935.643008</ele>
        <time>2020-02-09T14:46:45.987Z</time>
      </trkpt>
      <trkpt lat="45.32567" lon="6.21744">
        <ele>1933.6280064</ele>
        <time>2020-02-09T14:46:48.002Z</time>
      </trkpt>
      <trkpt lat="45.32566" lon="6.21768">
        <ele>1931.643008</ele>
        <time>2020-02-09T14:46:49.987Z</time>
      </trkpt>
      <trkpt lat="45.32563" lon="6.21792">
        <ele>1929.4549753772</ele>
        <time>2020-02-09T14:46:51.987Z</time>
      </trkpt>
      <trkpt lat="45.32558" lon="6.21815">
        <ele>1927</ele>
        <time>2020-02-09T14:46:53.988Z</time>
      </trkpt>
      <trkpt lat="45.32556" lon="6.21835">
        <ele>1926</ele>
        <time>2020-02-09T14:46:55.990Z</time>
      </trkpt>
      <trkpt lat="45.32554" lon="6.21854">
        <ele>1925.5518132118</ele>
        <time>2020-02-09T14:46:58.002Z</time>
      </trkpt>
      <trkpt lat="45.32553" lon="6.21874">
        <ele>1923.643008</ele>
        <time>2020-02-09T14:46:59.987Z</time>
      </trkpt>
      <trkpt lat="45.32551" lon="6.21896">
        <ele>1922.286016</ele>
        <time>2020-02-09T14:47:01.987Z</time>
      </trkpt>
      <trkpt lat="45.3255" lon="6.21921">
        <ele>1918.4534511061</ele>
        <time>2020-02-09T14:47:03.988Z</time>
      </trkpt>
      <trkpt lat="45.32548" lon="6.21934">
        <ele>1916.931899974</ele>
        <time>2020-02-09T14:47:04.987Z</time>
      </trkpt>
      <trkpt lat="45.32545" lon="6.21946">
        <ele>1915.6409984</ele>
        <time>2020-02-09T14:47:05.989Z</time>
      </trkpt>
      <trkpt lat="45.32538" lon="6.21968">
        <ele>1914</ele>
        <time>2020-02-09T14:47:08.004Z</time>
      </trkpt>
      <trkpt lat="45.32533" lon="6.21987">
        <ele>1913</ele>
        <time>2020-02-09T14:47:09.992Z</time>
      </trkpt>
      <trkpt lat="45.32527" lon="6.22004">
        <ele>1913</ele>
        <time>2020-02-09T14:47:11.992Z</time>
      </trkpt>
      <trkpt lat="45.32523" lon="6.22022">
        <ele>1911.6420096</ele>
        <time>2020-02-09T14:47:13.988Z</time>
      </trkpt>
      <trkpt lat="45.32517" lon="6.22039">
        <ele>1909.6420096</ele>
        <time>2020-02-09T14:47:15.988Z</time>
      </trkpt>
      <trkpt lat="45.32513" lon="6.22054">
        <ele>1909</ele>
        <time>2020-02-09T14:47:17.999Z</time>
      </trkpt>
      <trkpt lat="45.32509" lon="6.22068">
        <ele>1909</ele>
        <time>2020-02-09T14:47:19.988Z</time>
      </trkpt>
      <trkpt lat="45.32507" lon="6.22082">
        <ele>1909</ele>
        <time>2020-02-09T14:47:22.998Z</time>
      </trkpt>
      <trkpt lat="45.32506" lon="6.22095">
        <ele>1909</ele>
        <time>2020-02-09T14:47:58.002Z</time>
      </trkpt>
      <trkpt lat="45.32498" lon="6.22107">
        <ele>1908</ele>
        <time>2020-02-09T14:48:00.988Z</time>
      </trkpt>
      <trkpt lat="45.32488" lon="6.2211">
        <ele>1906.7160333389</ele>
        <time>2020-02-09T14:48:03.002Z</time>
      </trkpt>
      <trkpt lat="45.32483" lon="6.2213">
        <ele>1901.286016</ele>
        <time>2020-02-09T14:48:05.987Z</time>
      </trkpt>
      <trkpt lat="45.32478" lon="6.22147">
        <ele>1897.2520192</ele>
        <time>2020-02-09T14:48:08.004Z</time>
      </trkpt>
      <trkpt lat="45.32481" lon="6.22166">
        <ele>1894.643008</ele>
        <time>2020-02-09T14:48:09.987Z</time>
      </trkpt>
      <trkpt lat="45.32487" lon="6.22184">
        <ele>1893</ele>
        <time>2020-02-09T14:48:11.987Z</time>
      </trkpt>
      <trkpt lat="45.32491" lon="6.22203">
        <ele>1891.726725553</ele>
        <time>2020-02-09T14:48:13.988Z</time>
      </trkpt>
      <trkpt lat="45.32485" lon="6.22216">
        <ele>1890.286016</ele>
        <time>2020-02-09T14:48:15.987Z</time>
      </trkpt>
      <trkpt lat="45.32481" lon="6.22231">
        <ele>1887.627008</ele>
        <time>2020-02-09T14:48:18.003Z</time>
      </trkpt>
      <trkpt lat="45.32472" lon="6.22238">
        <ele>1885.726725553</ele>
        <time>2020-02-09T14:48:19.988Z</time>
      </trkpt>
      <trkpt lat="45.32466" lon="6.22248">
        <ele>1883.64</ele>
        <time>2020-02-09T14:48:21.990Z</time>
      </trkpt>
      <trkpt lat="45.32469" lon="6.22268">
        <ele>1881.6445517451</ele>
        <time>2020-02-09T14:48:24.989Z</time>
      </trkpt>
      <trkpt lat="45.32477" lon="6.22282">
        <ele>1879.6409984</ele>
        <time>2020-02-09T14:48:26.989Z</time>
      </trkpt>
      <trkpt lat="45.32481" lon="6.22294">
        <ele>1877.7236645398</ele>
        <time>2020-02-09T14:48:28.992Z</time>
      </trkpt>
      <trkpt lat="45.32486" lon="6.22309">
        <ele>1875</ele>
        <time>2020-02-09T14:48:31.988Z</time>
      </trkpt>
      <trkpt lat="45.32478" lon="6.22302">
        <ele>1875</ele>
        <time>2020-02-09T14:48:59.989Z</time>
      </trkpt>
      <trkpt lat="45.32485" lon="6.22315">
        <ele>1874</ele>
        <time>2020-02-09T14:49:08.004Z</time>
      </trkpt>
      <trkpt lat="45.32488" lon="6.22329">
        <ele>1872.7267131118</ele>
        <time>2020-02-09T14:49:10.988Z</time>
      </trkpt>
      <trkpt lat="45.32478" lon="6.22338">
        <ele>1871</ele>
        <time>2020-02-09T14:49:14.990Z</time>
      </trkpt>
      <trkpt lat="45.32466" lon="6.2234">
        <ele>1870</ele>
        <time>2020-02-09T14:49:18.005Z</time>
      </trkpt>
      <trkpt lat="45.32457" lon="6.22344">
        <ele>1869</ele>
        <time>2020-02-09T14:49:19.988Z</time>
      </trkpt>
      <trkpt lat="45.32452" lon="6.22358">
        <ele>1866.254016</ele>
        <time>2020-02-09T14:49:23.003Z</time>
      </trkpt>
      <trkpt lat="45.32451" lon="6.22372">
        <ele>1862.7330793013</ele>
        <time>2020-02-09T14:49:24.987Z</time>
      </trkpt>
      <trkpt lat="45.32457" lon="6.22381">
        <ele>1859.2840192</ele>
        <time>2020-02-09T14:49:43.988Z</time>
      </trkpt>
      <trkpt lat="45.32451" lon="6.22391">
        <ele>1856.6420096</ele>
        <time>2020-02-09T14:49:45.988Z</time>
      </trkpt>
      <trkpt lat="45.32443" lon="6.22397">
        <ele>1855</ele>
        <time>2020-02-09T14:49:49.988Z</time>
      </trkpt>
      <trkpt lat="45.32452" lon="6.22399">
        <ele>1854</ele>
        <time>2020-02-09T14:50:01.988Z</time>
      </trkpt>
      <trkpt lat="45.32452" lon="6.22412">
        <ele>1853</ele>
        <time>2020-02-09T14:50:45.988Z</time>
      </trkpt>
      <trkpt lat="45.32457" lon="6.22424">
        <ele>1849.7152711959</ele>
        <time>2020-02-09T14:51:13.003Z</time>
      </trkpt>
      <trkpt lat="45.32466" lon="6.22419">
        <ele>1848</ele>
        <time>2020-02-09T14:51:24.989Z</time>
      </trkpt>
      <trkpt lat="45.32471" lon="6.22433">
        <ele>1842.64</ele>
        <time>2020-02-09T14:51:29.990Z</time>
      </trkpt>
      <trkpt lat="45.32467" lon="6.22447">
        <ele>1838.64</ele>
        <time>2020-02-09T14:51:32.990Z</time>
      </trkpt>
      <trkpt lat="45.32464" lon="6.22459">
        <ele>1835.6409984</ele>
        <time>2020-02-09T14:51:35.989Z</time>
      </trkpt>
      <trkpt lat="45.32465" lon="6.22473">
        <ele>1830.715273978</ele>
        <time>2020-02-09T14:51:42.003Z</time>
      </trkpt>
      <trkpt lat="45.32463" lon="6.2249">
        <ele>1827.6420096</ele>
        <time>2020-02-09T14:51:45.988Z</time>
      </trkpt>
      <trkpt lat="45.32466" lon="6.22503">
        <ele>1823</ele>
        <time>2020-02-09T14:51:52.002Z</time>
      </trkpt>
      <trkpt lat="45.32475" lon="6.22512">
        <ele>1820</ele>
        <time>2020-02-09T14:52:27.003Z</time>
      </trkpt>
      <trkpt lat="45.32476" lon="6.22527">
        <ele>1816</ele>
        <time>2020-02-09T14:52:42.988Z</time>
      </trkpt>
      <trkpt lat="45.32471" lon="6.22539">
        <ele>1815</ele>
        <time>2020-02-09T14:53:18.988Z</time>
      </trkpt>
      <trkpt lat="45.32462" lon="6.22547">
        <ele>1813.6290048</ele>
        <time>2020-02-09T14:53:22.001Z</time>
      </trkpt>
      <trkpt lat="45.32453" lon="6.22551">
        <ele>1812.6390016</ele>
        <time>2020-02-09T14:53:23.991Z</time>
      </trkpt>
      <trkpt lat="45.32453" lon="6.22567">
        <ele>1804.2819968</ele>
        <time>2020-02-09T14:53:27.989Z</time>
      </trkpt>
      <trkpt lat="45.32454" lon="6.22581">
        <ele>1800.7267131118</ele>
        <time>2020-02-09T14:53:30.988Z</time>
      </trkpt>
      <trkpt lat="45.32454" lon="6.22595">
        <ele>1795.627008</ele>
        <time>2020-02-09T14:53:47.003Z</time>
      </trkpt>
      <trkpt lat="45.32448" lon="6.22604">
        <ele>1792.6420096</ele>
        <time>2020-02-09T14:53:49.988Z</time>
      </trkpt>
      <trkpt lat="45.32458" lon="6.22608">
        <ele>1784.6420096</ele>
        <time>2020-02-09T14:54:09.988Z</time>
      </trkpt>
      <trkpt lat="45.32459" lon="6.22622">
        <ele>1779.6419968</ele>
        <time>2020-02-09T14:54:18.988Z</time>
      </trkpt>
      <trkpt lat="45.32453" lon="6.22611">
        <ele>1778</ele>
        <time>2020-02-09T14:54:54.989Z</time>
      </trkpt>
      <trkpt lat="45.32461" lon="6.22616">
        <ele>1777</ele>
        <time>2020-02-09T14:55:36.988Z</time>
      </trkpt>
      <trkpt lat="45.32452" lon="6.22611">
        <ele>1778</ele>
        <time>2020-02-09T14:56:09.003Z</time>
      </trkpt>
      <trkpt lat="45.32462" lon="6.22612">
        <ele>1777</ele>
        <time>2020-02-09T14:56:20.001Z</time>
      </trkpt>
      <trkpt lat="45.32471" lon="6.22616">
        <ele>1773.6419968</ele>
        <time>2020-02-09T14:56:26.988Z</time>
      </trkpt>
      <trkpt lat="45.32467" lon="6.22629">
        <ele>1766</ele>
        <time>2020-02-09T14:57:35.991Z</time>
      </trkpt>
      <trkpt lat="45.32476" lon="6.22636">
        <ele>1761.7152711959</ele>
        <time>2020-02-09T14:58:31.003Z</time>
      </trkpt>
      <trkpt lat="45.32482" lon="6.22647">
        <ele>1752.6420096</ele>
        <time>2020-02-09T14:58:37.988Z</time>
      </trkpt>
      <trkpt lat="45.3249" lon="6.22653">
        <ele>1749.7152711959</ele>
        <time>2020-02-09T14:58:41.003Z</time>
      </trkpt>
      <trkpt lat="45.32499" lon="6.22663">
        <ele>1746.6409984</ele>
        <time>2020-02-09T14:58:43.989Z</time>
      </trkpt>
      <trkpt lat="45.32503" lon="6.22676">
        <ele>1745</ele>
        <time>2020-02-09T14:58:46.003Z</time>
      </trkpt>
      <trkpt lat="45.32504" lon="6.22693">
        <ele>1742.7267131118</ele>
        <time>2020-02-09T14:58:48.988Z</time>
      </trkpt>
      <trkpt lat="45.32504" lon="6.22707">
        <ele>1741.627008</ele>
        <time>2020-02-09T14:58:51.003Z</time>
      </trkpt>
      <trkpt lat="45.32502" lon="6.22723">
        <ele>1738.2839936</ele>
        <time>2020-02-09T14:58:52.988Z</time>
      </trkpt>
      <trkpt lat="45.32497" lon="6.2274">
        <ele>1734.6409984</ele>
        <time>2020-02-09T14:58:54.989Z</time>
      </trkpt>
      <trkpt lat="45.32498" lon="6.22755">
        <ele>1731.7244266828</ele>
        <time>2020-02-09T14:58:56.991Z</time>
      </trkpt>
      <trkpt lat="45.32501" lon="6.22769">
        <ele>1728.6380032</ele>
        <time>2020-02-09T14:58:58.992Z</time>
      </trkpt>
      <trkpt lat="45.32502" lon="6.22785">
        <ele>1725</ele>
        <time>2020-02-09T14:59:01.001Z</time>
      </trkpt>
      <trkpt lat="45.32505" lon="6.22799">
        <ele>1723.6409984</ele>
        <time>2020-02-09T14:59:02.989Z</time>
      </trkpt>
      <trkpt lat="45.32508" lon="6.22817">
        <ele>1723</ele>
        <time>2020-02-09T14:59:05.998Z</time>
      </trkpt>
      <trkpt lat="45.3251" lon="6.22833">
        <ele>1721.7259509688</ele>
        <time>2020-02-09T14:59:08.989Z</time>
      </trkpt>
      <trkpt lat="45.32511" lon="6.22851">
        <ele>1720</ele>
        <time>2020-02-09T14:59:11.989Z</time>
      </trkpt>
      <trkpt lat="45.32509" lon="6.22866">
        <ele>1718</ele>
        <time>2020-02-09T14:59:14.989Z</time>
      </trkpt>
      <trkpt lat="45.32509" lon="6.22885">
        <ele>1717</ele>
        <time>2020-02-09T14:59:17.988Z</time>
      </trkpt>
      <trkpt lat="45.32506" lon="6.22898">
        <ele>1715.9514745206</ele>
        <time>2020-02-09T14:59:19.989Z</time>
      </trkpt>
      <trkpt lat="45.32506" lon="6.22914">
        <ele>1713.2840192</ele>
        <time>2020-02-09T14:59:21.988Z</time>
      </trkpt>
      <trkpt lat="45.32504" lon="6.22929">
        <ele>1711</ele>
        <time>2020-02-09T14:59:23.992Z</time>
      </trkpt>
      <trkpt lat="45.32503" lon="6.22948">
        <ele>1710</ele>
        <time>2020-02-09T14:59:26.988Z</time>
      </trkpt>
      <trkpt lat="45.32505" lon="6.2296">
        <ele>1708.7267131118</ele>
        <time>2020-02-09T14:59:28.988Z</time>
      </trkpt>
      <trkpt lat="45.3251" lon="6.22972">
        <ele>1706.632</ele>
        <time>2020-02-09T14:59:30.998Z</time>
      </trkpt>
      <trkpt lat="45.32514" lon="6.22984">
        <ele>1705.6419968</ele>
        <time>2020-02-09T14:59:32.988Z</time>
      </trkpt>
      <trkpt lat="45.32519" lon="6.22997">
        <ele>1703.6409984</ele>
        <time>2020-02-09T14:59:34.989Z</time>
      </trkpt>
      <trkpt lat="45.32521" lon="6.23014">
        <ele>1700.7238435635</ele>
        <time>2020-02-09T14:59:37.989Z</time>
      </trkpt>
      <trkpt lat="45.32512" lon="6.23019">
        <ele>1699</ele>
        <time>2020-02-09T14:59:48.991Z</time>
      </trkpt>
      <trkpt lat="45.32503" lon="6.23022">
        <ele>1698</ele>
        <time>2020-02-09T14:59:57.988Z</time>
      </trkpt>
      <trkpt lat="45.32498" lon="6.23011">
        <ele>1699</ele>
        <time>2020-02-09T15:00:22.991Z</time>
      </trkpt>
      <trkpt lat="45.32504" lon="6.23">
        <ele>1699</ele>
        <time>2020-02-09T15:00:30.001Z</time>
      </trkpt>
      <trkpt lat="45.32514" lon="6.23001">
        <ele>1698</ele>
        <time>2020-02-09T15:00:44.988Z</time>
      </trkpt>
      <trkpt lat="45.32523" lon="6.23007">
        <ele>1698</ele>
        <time>2020-02-09T15:01:08.987Z</time>
      </trkpt>
      <trkpt lat="45.32514" lon="6.23003">
        <ele>1699</ele>
        <time>2020-02-09T15:01:58.987Z</time>
      </trkpt>
      <trkpt lat="45.32521" lon="6.23011">
        <ele>1699</ele>
        <time>2020-02-09T15:03:58.002Z</time>
      </trkpt>
      <trkpt lat="45.32513" lon="6.23004">
        <ele>1699</ele>
        <time>2020-02-09T15:04:19.987Z</time>
      </trkpt>
      <trkpt lat="45.32504" lon="6.22994">
        <ele>1698</ele>
        <time>2020-02-09T15:04:27.001Z</time>
      </trkpt>
      <trkpt lat="45.32493" lon="6.22994">
        <ele>1699</ele>
        <time>2020-02-09T15:05:21.001Z</time>
      </trkpt>
      <trkpt lat="45.32502" lon="6.22996">
        <ele>1698</ele>
        <time>2020-02-09T15:05:29.991Z</time>
      </trkpt>
      <trkpt lat="45.32492" lon="6.22998">
        <ele>1699</ele>
        <time>2020-02-09T15:06:34.001Z</time>
      </trkpt>
      <trkpt lat="45.32483" lon="6.23004">
        <ele>1698</ele>
        <time>2020-02-09T15:06:38.001Z</time>
      </trkpt>
      <trkpt lat="45.32479" lon="6.23016">
        <ele>1697</ele>
        <time>2020-02-09T15:07:02.991Z</time>
      </trkpt>
      <trkpt lat="45.32493" lon="6.2302">
        <ele>1697</ele>
        <time>2020-02-09T15:08:30.001Z</time>
      </trkpt>
      <trkpt lat="45.325" lon="6.23009">
        <ele>1697</ele>
        <time>2020-02-09T15:08:33.961Z</time>
      </trkpt>
      <trkpt lat="45.3251" lon="6.23014">
        <ele>1697</ele>
        <time>2020-02-09T15:08:41.991Z</time>
      </trkpt>
      <trkpt lat="45.32523" lon="6.23008">
        <ele>1697</ele>
        <time>2020-02-09T15:08:53.001Z</time>
      </trkpt>
      <trkpt lat="45.32511" lon="6.23013">
        <ele>1697</ele>
        <time>2020-02-09T15:09:00.001Z</time>
      </trkpt>
      <trkpt lat="45.32502" lon="6.23008">
        <ele>1697</ele>
        <time>2020-02-09T15:09:06.003Z</time>
      </trkpt>
      <trkpt lat="45.32492" lon="6.2301">
        <ele>1698</ele>
        <time>2020-02-09T15:09:13.986Z</time>
      </trkpt>
      <trkpt lat="45.32482" lon="6.23009">
        <ele>1698</ele>
        <time>2020-02-09T15:09:25.998Z</time>
      </trkpt>
      <trkpt lat="45.32486" lon="6.23022">
        <ele>1697</ele>
        <time>2020-02-09T15:10:57.989Z</time>
      </trkpt>
      <trkpt lat="45.32487" lon="6.23035">
        <ele>1694.735657161</ele>
        <time>2020-02-09T15:11:03.991Z</time>
      </trkpt>
      <trkpt lat="45.3249" lon="6.2305">
        <ele>1692</ele>
        <time>2020-02-09T15:11:07.991Z</time>
      </trkpt>
      <trkpt lat="45.32495" lon="6.23066">
        <ele>1691.64</ele>
        <time>2020-02-09T15:11:12.990Z</time>
      </trkpt>
      <trkpt lat="45.32494" lon="6.2308">
        <ele>1689.6420096</ele>
        <time>2020-02-09T15:11:15.988Z</time>
      </trkpt>
      <trkpt lat="45.325" lon="6.23097">
        <ele>1685.6409984</ele>
        <time>2020-02-09T15:11:19.989Z</time>
      </trkpt>
      <trkpt lat="45.32501" lon="6.23116">
        <ele>1683.7379764043</ele>
        <time>2020-02-09T15:11:22.988Z</time>
      </trkpt>
      <trkpt lat="45.32506" lon="6.23131">
        <ele>1681.6390016</ele>
        <time>2020-02-09T15:11:24.991Z</time>
      </trkpt>
      <trkpt lat="45.32507" lon="6.23145">
        <ele>1679.6290048</ele>
        <time>2020-02-09T15:11:27.001Z</time>
      </trkpt>
      <trkpt lat="45.32508" lon="6.23163">
        <ele>1679</ele>
        <time>2020-02-09T15:11:29.989Z</time>
      </trkpt>
      <trkpt lat="45.32511" lon="6.23178">
        <ele>1678.7259509688</ele>
        <time>2020-02-09T15:11:32.989Z</time>
      </trkpt>
      <trkpt lat="45.32512" lon="6.23194">
        <ele>1677</ele>
        <time>2020-02-09T15:11:35.991Z</time>
      </trkpt>
      <trkpt lat="45.32509" lon="6.23207">
        <ele>1676</ele>
        <time>2020-02-09T15:11:39.991Z</time>
      </trkpt>
      <trkpt lat="45.32505" lon="6.23219">
        <ele>1675</ele>
        <time>2020-02-09T15:11:44.991Z</time>
      </trkpt>
      <trkpt lat="45.325" lon="6.23235">
        <ele>1674.6390016</ele>
        <time>2020-02-09T15:11:48.991Z</time>
      </trkpt>
      <trkpt lat="45.32495" lon="6.23247">
        <ele>1672.722307556</ele>
        <time>2020-02-09T15:11:50.991Z</time>
      </trkpt>
      <trkpt lat="45.32487" lon="6.23254">
        <ele>1672</ele>
        <time>2020-02-09T15:11:53.986Z</time>
      </trkpt>
      <trkpt lat="45.32482" lon="6.23268">
        <ele>1672</ele>
        <time>2020-02-09T15:12:07.001Z</time>
      </trkpt>
      <trkpt lat="45.32474" lon="6.23278">
        <ele>1670.6390016</ele>
        <time>2020-02-09T15:12:10.991Z</time>
      </trkpt>
      <trkpt lat="45.32467" lon="6.23287">
        <ele>1669.6280064</ele>
        <time>2020-02-09T15:12:17.002Z</time>
      </trkpt>
      <trkpt lat="45.32476" lon="6.2328">
        <ele>1666</ele>
        <time>2020-02-09T15:12:22.992Z</time>
      </trkpt>
      <trkpt lat="45.32485" lon="6.23277">
        <ele>1665</ele>
        <time>2020-02-09T15:12:42.102Z</time>
      </trkpt>
      <trkpt lat="45.32496" lon="6.23276">
        <ele>1664</ele>
        <time>2020-02-09T15:12:49.986Z</time>
      </trkpt>
      <trkpt lat="45.32505" lon="6.23274">
        <ele>1659.64</ele>
        <time>2020-02-09T15:13:02.990Z</time>
      </trkpt>
      <trkpt lat="45.32515" lon="6.23267">
        <ele>1651.6390016</ele>
        <time>2020-02-09T15:13:07.991Z</time>
      </trkpt>
      <trkpt lat="45.32521" lon="6.23277">
        <ele>1646.7259509688</ele>
        <time>2020-02-09T15:13:12.989Z</time>
      </trkpt>
      <trkpt lat="45.32527" lon="6.23289">
        <ele>1643.6409984</ele>
        <time>2020-02-09T15:13:17.989Z</time>
      </trkpt>
      <trkpt lat="45.32526" lon="6.23302">
        <ele>1640.6290048</ele>
        <time>2020-02-09T15:13:22.001Z</time>
      </trkpt>
      <trkpt lat="45.32519" lon="6.23316">
        <ele>1639</ele>
        <time>2020-02-09T15:13:25.001Z</time>
      </trkpt>
      <trkpt lat="45.32512" lon="6.23325">
        <ele>1636.6390016</ele>
        <time>2020-02-09T15:13:48.991Z</time>
      </trkpt>
      <trkpt lat="45.32503" lon="6.23333">
        <ele>1628.6452350234</ele>
        <time>2020-02-09T15:14:05.127Z</time>
      </trkpt>
      <trkpt lat="45.32499" lon="6.23348">
        <ele>1626.6290048</ele>
        <time>2020-02-09T15:14:08.001Z</time>
      </trkpt>
      <trkpt lat="45.32495" lon="6.23363">
        <ele>1623</ele>
        <time>2020-02-09T15:14:19.002Z</time>
      </trkpt>
      <trkpt lat="45.32493" lon="6.23375">
        <ele>1615</ele>
        <time>2020-02-09T15:14:40.991Z</time>
      </trkpt>
      <trkpt lat="45.32485" lon="6.23387">
        <ele>1612.7265163636</ele>
        <time>2020-02-09T15:14:46.991Z</time>
      </trkpt>
      <trkpt lat="45.32475" lon="6.23395">
        <ele>1606</ele>
        <time>2020-02-09T15:15:06.989Z</time>
      </trkpt>
      <trkpt lat="45.32473" lon="6.23409">
        <ele>1603.64</ele>
        <time>2020-02-09T15:15:10.990Z</time>
      </trkpt>
      <trkpt lat="45.32473" lon="6.23423">
        <ele>1596.6460777793</ele>
        <time>2020-02-09T15:15:15.991Z</time>
      </trkpt>
      <trkpt lat="45.32473" lon="6.23437">
        <ele>1592.6290048</ele>
        <time>2020-02-09T15:15:19.001Z</time>
      </trkpt>
      <trkpt lat="45.32469" lon="6.23451">
        <ele>1589.721806248</ele>
        <time>2020-02-09T15:15:24.000Z</time>
      </trkpt>
      <trkpt lat="45.32466" lon="6.23463">
        <ele>1585.6259968</ele>
        <time>2020-02-09T15:15:31.004Z</time>
      </trkpt>
      <trkpt lat="45.32461" lon="6.23474">
        <ele>1584</ele>
        <time>2020-02-09T15:15:51.001Z</time>
      </trkpt>
      <trkpt lat="45.32458" lon="6.23491">
        <ele>1581</ele>
        <time>2020-02-09T15:15:55.989Z</time>
      </trkpt>
      <trkpt lat="45.32457" lon="6.23508">
        <ele>1578.6259968</ele>
        <time>2020-02-09T15:15:59.004Z</time>
      </trkpt>
      <trkpt lat="45.32454" lon="6.23524">
        <ele>1573.7189430303</ele>
        <time>2020-02-09T15:16:04.001Z</time>
      </trkpt>
      <trkpt lat="45.32452" lon="6.23542">
        <ele>1568.9414303216</ele>
        <time>2020-02-09T15:16:06.991Z</time>
      </trkpt>
      <trkpt lat="45.32448" lon="6.23554">
        <ele>1567</ele>
        <time>2020-02-09T15:16:09.001Z</time>
      </trkpt>
      <trkpt lat="45.32439" lon="6.23562">
        <ele>1566</ele>
        <time>2020-02-09T15:16:14.001Z</time>
      </trkpt>
      <trkpt lat="45.32435" lon="6.23574">
        <ele>1565</ele>
        <time>2020-02-09T15:16:26.001Z</time>
      </trkpt>
      <trkpt lat="45.3243" lon="6.23589">
        <ele>1564</ele>
        <time>2020-02-09T15:16:28.987Z</time>
      </trkpt>
      <trkpt lat="45.32421" lon="6.23594">
        <ele>1561.6362769335</ele>
        <time>2020-02-09T15:16:34.001Z</time>
      </trkpt>
      <trkpt lat="45.32416" lon="6.23605">
        <ele>1552.7057348498</ele>
        <time>2020-02-09T15:16:40.989Z</time>
      </trkpt>
      <trkpt lat="45.32404" lon="6.23601">
        <ele>1550</ele>
        <time>2020-02-09T15:16:46.001Z</time>
      </trkpt>
      <trkpt lat="45.32395" lon="6.23609">
        <ele>1549.7160361135</ele>
        <time>2020-02-09T15:16:58.002Z</time>
      </trkpt>
      <trkpt lat="45.32387" lon="6.23618">
        <ele>1547</ele>
        <time>2020-02-09T15:17:02.001Z</time>
      </trkpt>
      <trkpt lat="45.32378" lon="6.23612">
        <ele>1544</ele>
        <time>2020-02-09T15:17:19.001Z</time>
      </trkpt>
      <trkpt lat="45.32386" lon="6.23621">
        <ele>1543</ele>
        <time>2020-02-09T15:18:02.001Z</time>
      </trkpt>
      <trkpt lat="45.32379" lon="6.23631">
        <ele>1539.6290048</ele>
        <time>2020-02-09T15:18:07.001Z</time>
      </trkpt>
      <trkpt lat="45.32377" lon="6.23645">
        <ele>1539</ele>
        <time>2020-02-09T15:18:11.001Z</time>
      </trkpt>
      <trkpt lat="45.32368" lon="6.23648">
        <ele>1539.9128510825</ele>
        <time>2020-02-09T15:18:20.001Z</time>
      </trkpt>
      <trkpt lat="45.32374" lon="6.23658">
        <ele>1535.6290048</ele>
        <time>2020-02-09T15:18:28.001Z</time>
      </trkpt>
      <trkpt lat="45.32367" lon="6.23669">
        <ele>1528.6290048</ele>
        <time>2020-02-09T15:18:52.001Z</time>
      </trkpt>
      <trkpt lat="45.32367" lon="6.23683">
        <ele>1527.6290048</ele>
        <time>2020-02-09T15:18:56.001Z</time>
      </trkpt>
      <trkpt lat="45.32357" lon="6.23684">
        <ele>1527</ele>
        <time>2020-02-09T15:19:02.001Z</time>
      </trkpt>
      <trkpt lat="45.32348" lon="6.2369">
        <ele>1524</ele>
        <time>2020-02-09T15:19:09.001Z</time>
      </trkpt>
      <trkpt lat="45.32338" lon="6.23693">
        <ele>1522.6290048</ele>
        <time>2020-02-09T15:19:11.001Z</time>
      </trkpt>
      <trkpt lat="45.32328" lon="6.23695">
        <ele>1521</ele>
        <time>2020-02-09T15:19:13.001Z</time>
      </trkpt>
      <trkpt lat="45.32319" lon="6.23701">
        <ele>1520</ele>
        <time>2020-02-09T15:19:16.001Z</time>
      </trkpt>
      <trkpt lat="45.32315" lon="6.23713">
        <ele>1519</ele>
        <time>2020-02-09T15:19:35.001Z</time>
      </trkpt>
      <trkpt lat="45.32308" lon="6.23721">
        <ele>1516</ele>
        <time>2020-02-09T15:19:46.001Z</time>
      </trkpt>
      <trkpt lat="45.32317" lon="6.23723">
        <ele>1509</ele>
        <time>2020-02-09T15:20:11.001Z</time>
      </trkpt>
      <trkpt lat="45.32329" lon="6.23726">
        <ele>1509</ele>
        <time>2020-02-09T15:20:19.001Z</time>
      </trkpt>
      <trkpt lat="45.32324" lon="6.23737">
        <ele>1505.8305422222</ele>
        <time>2020-02-09T15:20:32.991Z</time>
      </trkpt>
      <trkpt lat="45.32321" lon="6.2375">
        <ele>1500</ele>
        <time>2020-02-09T15:20:42.991Z</time>
      </trkpt>
      <trkpt lat="45.32332" lon="6.23767">
        <ele>1500</ele>
        <time>2020-02-09T15:20:47.001Z</time>
      </trkpt>
      <trkpt lat="45.3234" lon="6.23772">
        <ele>1497.6290048</ele>
        <time>2020-02-09T15:20:53.001Z</time>
      </trkpt>
      <trkpt lat="45.32337" lon="6.23759">
        <ele>1496</ele>
        <time>2020-02-09T15:21:03.001Z</time>
      </trkpt>
      <trkpt lat="45.32349" lon="6.23757">
        <ele>1496</ele>
        <time>2020-02-09T15:21:09.001Z</time>
      </trkpt>
      <trkpt lat="45.3234" lon="6.23748">
        <ele>1496</ele>
        <time>2020-02-09T15:21:18.001Z</time>
      </trkpt>
      <trkpt lat="45.32331" lon="6.23747">
        <ele>1496</ele>
        <time>2020-02-09T15:21:23.001Z</time>
      </trkpt>
      <trkpt lat="45.32339" lon="6.23752">
        <ele>1496</ele>
        <time>2020-02-09T15:21:33.991Z</time>
      </trkpt>
      <trkpt lat="45.32348" lon="6.23749">
        <ele>1496</ele>
        <time>2020-02-09T15:21:41.991Z</time>
      </trkpt>
      <trkpt lat="45.32339" lon="6.23745">
        <ele>1496</ele>
        <time>2020-02-09T15:21:50.991Z</time>
      </trkpt>
      <trkpt lat="45.32345" lon="6.23756">
        <ele>1495</ele>
        <time>2020-02-09T15:22:01.001Z</time>
      </trkpt>
      <trkpt lat="45.32341" lon="6.23771">
        <ele>1494.6290048</ele>
        <time>2020-02-09T15:22:03.001Z</time>
      </trkpt>
      <trkpt lat="45.32332" lon="6.23782">
        <ele>1492.643008</ele>
        <time>2020-02-09T15:22:04.987Z</time>
      </trkpt>
      <trkpt lat="45.32321" lon="6.23788">
        <ele>1489.9180444444</ele>
        <time>2020-02-09T15:22:07.989Z</time>
      </trkpt>
      <trkpt lat="45.32331" lon="6.23792">
        <ele>1488</ele>
        <time>2020-02-09T15:22:18.991Z</time>
      </trkpt>
      <trkpt lat="45.32325" lon="6.23803">
        <ele>1487.6290048</ele>
        <time>2020-02-09T15:22:24.001Z</time>
      </trkpt>
      <trkpt lat="45.32313" lon="6.23807">
        <ele>1487</ele>
        <time>2020-02-09T15:22:30.001Z</time>
      </trkpt>
      <trkpt lat="45.32303" lon="6.23813">
        <ele>1486</ele>
        <time>2020-02-09T15:22:32.989Z</time>
      </trkpt>
      <trkpt lat="45.32294" lon="6.23812">
        <ele>1484.6390016</ele>
        <time>2020-02-09T15:22:34.991Z</time>
      </trkpt>
      <trkpt lat="45.32279" lon="6.23811">
        <ele>1482.714617672</ele>
        <time>2020-02-09T15:22:38.001Z</time>
      </trkpt>
      <trkpt lat="45.32271" lon="6.23818">
        <ele>1479.6290048</ele>
        <time>2020-02-09T15:22:40.001Z</time>
      </trkpt>
      <trkpt lat="45.32262" lon="6.23828">
        <ele>1478.6280064</ele>
        <time>2020-02-09T15:22:42.002Z</time>
      </trkpt>
      <trkpt lat="45.3225" lon="6.23834">
        <ele>1476.6520381908</ele>
        <time>2020-02-09T15:22:43.991Z</time>
      </trkpt>
      <trkpt lat="45.32236" lon="6.23835">
        <ele>1474.9441195663</ele>
        <time>2020-02-09T15:22:45.987Z</time>
      </trkpt>
      <trkpt lat="45.32227" lon="6.23834">
        <ele>1472.6409984</ele>
        <time>2020-02-09T15:22:47.989Z</time>
      </trkpt>
      <trkpt lat="45.32217" lon="6.23838">
        <ele>1469</ele>
        <time>2020-02-09T15:22:56.001Z</time>
      </trkpt>
      <trkpt lat="45.32224" lon="6.23848">
        <ele>1469</ele>
        <time>2020-02-09T15:23:08.005Z</time>
      </trkpt>
      <trkpt lat="45.32215" lon="6.23854">
        <ele>1468</ele>
        <time>2020-02-09T15:23:16.000Z</time>
      </trkpt>
      <trkpt lat="45.32198" lon="6.23867">
        <ele>1461.7751539882</ele>
        <time>2020-02-09T15:23:23.001Z</time>
      </trkpt>
      <trkpt lat="45.32189" lon="6.23871">
        <ele>1456.6259968</ele>
        <time>2020-02-09T15:23:29.004Z</time>
      </trkpt>
      <trkpt lat="45.32182" lon="6.23886">
        <ele>1451.632676856</ele>
        <time>2020-02-09T15:23:39.001Z</time>
      </trkpt>
      <trkpt lat="45.32176" lon="6.23897">
        <ele>1450</ele>
        <time>2020-02-09T15:23:41.001Z</time>
      </trkpt>
      <trkpt lat="45.32163" lon="6.23904">
        <ele>1448.7631578947</ele>
        <time>2020-02-09T15:23:44.990Z</time>
      </trkpt>
      <trkpt lat="45.32153" lon="6.23904">
        <ele>1446.6290048</ele>
        <time>2020-02-09T15:23:50.001Z</time>
      </trkpt>
      <trkpt lat="45.32144" lon="6.23912">
        <ele>1444</ele>
        <time>2020-02-09T15:23:53.989Z</time>
      </trkpt>
      <trkpt lat="45.32138" lon="6.23927">
        <ele>1444</ele>
        <time>2020-02-09T15:23:59.999Z</time>
      </trkpt>
      <trkpt lat="45.3214" lon="6.2394">
        <ele>1437.7824228508</ele>
        <time>2020-02-09T15:24:19.989Z</time>
      </trkpt>
      <trkpt lat="45.32133" lon="6.23951">
        <ele>1434</ele>
        <time>2020-02-09T15:24:27.001Z</time>
      </trkpt>
      <trkpt lat="45.32126" lon="6.23962">
        <ele>1432.643008</ele>
        <time>2020-02-09T15:24:35.987Z</time>
      </trkpt>
      <trkpt lat="45.32129" lon="6.23975">
        <ele>1424</ele>
        <time>2020-02-09T15:25:01.997Z</time>
      </trkpt>
      <trkpt lat="45.32121" lon="6.23987">
        <ele>1423</ele>
        <time>2020-02-09T15:25:04.987Z</time>
      </trkpt>
      <trkpt lat="45.32114" lon="6.23999">
        <ele>1421.7259536465</ele>
        <time>2020-02-09T15:25:07.989Z</time>
      </trkpt>
      <trkpt lat="45.32104" lon="6.24009">
        <ele>1419.6445517451</ele>
        <time>2020-02-09T15:25:12.989Z</time>
      </trkpt>
      <trkpt lat="45.32094" lon="6.24019">
        <ele>1418.7167954819</ele>
        <time>2020-02-09T15:25:17.001Z</time>
      </trkpt>
      <trkpt lat="45.3209" lon="6.24033">
        <ele>1417</ele>
        <time>2020-02-09T15:25:27.001Z</time>
      </trkpt>
      <trkpt lat="45.32079" lon="6.24038">
        <ele>1415.716798249</ele>
        <time>2020-02-09T15:25:32.001Z</time>
      </trkpt>
      <trkpt lat="45.3207" lon="6.24045">
        <ele>1413.6290048</ele>
        <time>2020-02-09T15:25:34.001Z</time>
      </trkpt>
      <trkpt lat="45.3206" lon="6.24052">
        <ele>1410.9300016457</ele>
        <time>2020-02-09T15:25:36.989Z</time>
      </trkpt>
      <trkpt lat="45.3205" lon="6.24053">
        <ele>1407.6420096</ele>
        <time>2020-02-09T15:25:41.988Z</time>
      </trkpt>
      <trkpt lat="45.32041" lon="6.24061">
        <ele>1406</ele>
        <time>2020-02-09T15:25:48.001Z</time>
      </trkpt>
      <trkpt lat="45.32031" lon="6.24061">
        <ele>1405</ele>
        <time>2020-02-09T15:25:56.988Z</time>
      </trkpt>
      <trkpt lat="45.32022" lon="6.24066">
        <ele>1402.6290048</ele>
        <time>2020-02-09T15:26:02.001Z</time>
      </trkpt>
      <trkpt lat="45.32014" lon="6.24076">
        <ele>1401.6259968</ele>
        <time>2020-02-09T15:26:05.004Z</time>
      </trkpt>
      <trkpt lat="45.32005" lon="6.24074">
        <ele>1399.627008</ele>
        <time>2020-02-09T15:26:10.003Z</time>
      </trkpt>
      <trkpt lat="45.31997" lon="6.24083">
        <ele>1397</ele>
        <time>2020-02-09T15:26:23.989Z</time>
      </trkpt>
      <trkpt lat="45.31996" lon="6.24099">
        <ele>1393.9039002108</ele>
        <time>2020-02-09T15:26:33.989Z</time>
      </trkpt>
      <trkpt lat="45.31987" lon="6.24108">
        <ele>1390.6300032</ele>
        <time>2020-02-09T15:26:36.000Z</time>
      </trkpt>
      <trkpt lat="45.31978" lon="6.24117">
        <ele>1388.64</ele>
        <time>2020-02-09T15:26:37.990Z</time>
      </trkpt>
      <trkpt lat="45.31971" lon="6.2413">
        <ele>1385.627008</ele>
        <time>2020-02-09T15:26:41.003Z</time>
      </trkpt>
      <trkpt lat="45.31965" lon="6.24147">
        <ele>1381.7259509688</ele>
        <time>2020-02-09T15:26:44.989Z</time>
      </trkpt>
      <trkpt lat="45.31958" lon="6.24162">
        <ele>1378.6390016</ele>
        <time>2020-02-09T15:26:47.991Z</time>
      </trkpt>
      <trkpt lat="45.31953" lon="6.24177">
        <ele>1376.633339367</ele>
        <time>2020-02-09T15:26:51.003Z</time>
      </trkpt>
      <trkpt lat="45.3195" lon="6.24189">
        <ele>1374.6420096</ele>
        <time>2020-02-09T15:26:53.988Z</time>
      </trkpt>
      <trkpt lat="45.31945" lon="6.24205">
        <ele>1372</ele>
        <time>2020-02-09T15:26:57.991Z</time>
      </trkpt>
      <trkpt lat="45.31942" lon="6.24217">
        <ele>1370</ele>
        <time>2020-02-09T15:27:06.003Z</time>
      </trkpt>
      <trkpt lat="45.31933" lon="6.24214">
        <ele>1370</ele>
        <time>2020-02-09T15:28:09.991Z</time>
      </trkpt>
      <trkpt lat="45.31928" lon="6.24226">
        <ele>1369</ele>
        <time>2020-02-09T15:28:22.003Z</time>
      </trkpt>
      <trkpt lat="45.31922" lon="6.24238">
        <ele>1366.6409984</ele>
        <time>2020-02-09T15:28:24.989Z</time>
      </trkpt>
      <trkpt lat="45.31917" lon="6.24249">
        <ele>1365</ele>
        <time>2020-02-09T15:28:27.003Z</time>
      </trkpt>
      <trkpt lat="45.31913" lon="6.24263">
        <ele>1363.7379764043</ele>
        <time>2020-02-09T15:28:28.988Z</time>
      </trkpt>
      <trkpt lat="45.31904" lon="6.24277">
        <ele>1361</ele>
        <time>2020-02-09T15:28:31.999Z</time>
      </trkpt>
      <trkpt lat="45.31894" lon="6.24284">
        <ele>1359</ele>
        <time>2020-02-09T15:28:34.990Z</time>
      </trkpt>
      <trkpt lat="45.31885" lon="6.2429">
        <ele>1357</ele>
        <time>2020-02-09T15:28:38.989Z</time>
      </trkpt>
      <trkpt lat="45.31877" lon="6.24296">
        <ele>1356</ele>
        <time>2020-02-09T15:28:46.001Z</time>
      </trkpt>
      <trkpt lat="45.31871" lon="6.24308">
        <ele>1356</ele>
        <time>2020-02-09T15:29:09.001Z</time>
      </trkpt>
      <trkpt lat="45.31862" lon="6.24303">
        <ele>1354.6409984</ele>
        <time>2020-02-09T15:29:34.989Z</time>
      </trkpt>
      <trkpt lat="45.31852" lon="6.24306">
        <ele>1354</ele>
        <time>2020-02-09T15:29:39.988Z</time>
      </trkpt>
      <trkpt lat="45.3184" lon="6.24299">
        <ele>1353</ele>
        <time>2020-02-09T15:29:42.989Z</time>
      </trkpt>
      <trkpt lat="45.31828" lon="6.24295">
        <ele>1351.7244293754</ele>
        <time>2020-02-09T15:29:45.991Z</time>
      </trkpt>
      <trkpt lat="45.31819" lon="6.24291">
        <ele>1349.6420096</ele>
        <time>2020-02-09T15:29:47.988Z</time>
      </trkpt>
      <trkpt lat="45.31807" lon="6.24286">
        <ele>1346.6455402631</ele>
        <time>2020-02-09T15:29:50.988Z</time>
      </trkpt>
      <trkpt lat="45.31798" lon="6.24282">
        <ele>1345.6419968</ele>
        <time>2020-02-09T15:29:52.988Z</time>
      </trkpt>
      <trkpt lat="45.31789" lon="6.24284">
        <ele>1344</ele>
        <time>2020-02-09T15:30:04.990Z</time>
      </trkpt>
      <trkpt lat="45.31779" lon="6.24283">
        <ele>1342</ele>
        <time>2020-02-09T15:30:30.989Z</time>
      </trkpt>
      <trkpt lat="45.31771" lon="6.24277">
        <ele>1341</ele>
        <time>2020-02-09T15:31:42.989Z</time>
      </trkpt>
      <trkpt lat="45.31761" lon="6.24273">
        <ele>1341</ele>
        <time>2020-02-09T15:31:46.989Z</time>
      </trkpt>
      <trkpt lat="45.3175" lon="6.24273">
        <ele>1340</ele>
        <time>2020-02-09T15:31:49.990Z</time>
      </trkpt>
      <trkpt lat="45.31739" lon="6.24273">
        <ele>1338</ele>
        <time>2020-02-09T15:31:52.991Z</time>
      </trkpt>
      <trkpt lat="45.31746" lon="6.24282">
        <ele>1338.7757590803</ele>
        <time>2020-02-09T15:32:34.000Z</time>
      </trkpt>
      <trkpt lat="45.31752" lon="6.24292">
        <ele>1337.28</ele>
        <time>2020-02-09T15:32:35.990Z</time>
      </trkpt>
      <trkpt lat="45.31755" lon="6.24309">
        <ele>1333.28</ele>
        <time>2020-02-09T15:32:37.990Z</time>
      </trkpt>
      <trkpt lat="45.31756" lon="6.24326">
        <ele>1329.28</ele>
        <time>2020-02-09T15:32:40.990Z</time>
      </trkpt>
      <trkpt lat="45.31758" lon="6.24345">
        <ele>1326</ele>
        <time>2020-02-09T15:32:44.001Z</time>
      </trkpt>
      <trkpt lat="45.31758" lon="6.24357">
        <ele>1325</ele>
        <time>2020-02-09T15:32:46.990Z</time>
      </trkpt>
      <trkpt lat="45.3175" lon="6.24365">
        <ele>1323</ele>
        <time>2020-02-09T15:32:55.988Z</time>
      </trkpt>
      <trkpt lat="45.31743" lon="6.24377">
        <ele>1321.6310016</ele>
        <time>2020-02-09T15:32:58.999Z</time>
      </trkpt>
      <trkpt lat="45.31737" lon="6.24386">
        <ele>1320.6409984</ele>
        <time>2020-02-09T15:33:04.989Z</time>
      </trkpt>
      <trkpt lat="45.31737" lon="6.24401">
        <ele>1317.725191511</ele>
        <time>2020-02-09T15:33:07.990Z</time>
      </trkpt>
      <trkpt lat="45.31735" lon="6.24415">
        <ele>1315.726725553</ele>
        <time>2020-02-09T15:33:11.988Z</time>
      </trkpt>
      <trkpt lat="45.31734" lon="6.24429">
        <ele>1312</ele>
        <time>2020-02-09T15:33:19.004Z</time>
      </trkpt>
      <trkpt lat="45.31735" lon="6.24444">
        <ele>1309</ele>
        <time>2020-02-09T15:33:24.000Z</time>
      </trkpt>
      <trkpt lat="45.31729" lon="6.24458">
        <ele>1307</ele>
        <time>2020-02-09T15:33:29.000Z</time>
      </trkpt>
      <trkpt lat="45.31725" lon="6.2447">
        <ele>1304.7183225201</ele>
        <time>2020-02-09T15:33:33.999Z</time>
      </trkpt>
      <trkpt lat="45.31727" lon="6.24483">
        <ele>1301.928575347</ele>
        <time>2020-02-09T15:33:50.990Z</time>
      </trkpt>
      <trkpt lat="45.31722" lon="6.24494">
        <ele>1299</ele>
        <time>2020-02-09T15:33:59.001Z</time>
      </trkpt>
      <trkpt lat="45.31714" lon="6.245">
        <ele>1297</ele>
        <time>2020-02-09T15:34:06.991Z</time>
      </trkpt>
      <trkpt lat="45.31706" lon="6.2451">
        <ele>1297</ele>
        <time>2020-02-09T15:34:13.989Z</time>
      </trkpt>
      <trkpt lat="45.31711" lon="6.24522">
        <ele>1297</ele>
        <time>2020-02-09T15:34:24.001Z</time>
      </trkpt>
      <trkpt lat="45.31702" lon="6.24515">
        <ele>1297</ele>
        <time>2020-02-09T15:34:30.004Z</time>
      </trkpt>
      <trkpt lat="45.31693" lon="6.24511">
        <ele>1297</ele>
        <time>2020-02-09T15:34:47.989Z</time>
      </trkpt>
      <trkpt lat="45.31682" lon="6.24513">
        <ele>1297</ele>
        <time>2020-02-09T15:34:53.001Z</time>
      </trkpt>
      <trkpt lat="45.31677" lon="6.24525">
        <ele>1295</ele>
        <time>2020-02-09T15:35:30.001Z</time>
      </trkpt>
      <trkpt lat="45.31667" lon="6.24527">
        <ele>1294</ele>
        <time>2020-02-09T15:36:29.989Z</time>
      </trkpt>
      <trkpt lat="45.31658" lon="6.24526">
        <ele>1294</ele>
        <time>2020-02-09T15:37:05.989Z</time>
      </trkpt>
      <trkpt lat="45.31649" lon="6.24524">
        <ele>1293</ele>
        <time>2020-02-09T15:37:16.989Z</time>
      </trkpt>
      <trkpt lat="45.31644" lon="6.24536">
        <ele>1293</ele>
        <time>2020-02-09T15:37:28.991Z</time>
      </trkpt>
      <trkpt lat="45.31636" lon="6.24548">
        <ele>1290.64</ele>
        <time>2020-02-09T15:37:31.990Z</time>
      </trkpt>
      <trkpt lat="45.3163" lon="6.24562">
        <ele>1288.7251888258</ele>
        <time>2020-02-09T15:37:34.990Z</time>
      </trkpt>
      <trkpt lat="45.31633" lon="6.24576">
        <ele>1286.28</ele>
        <time>2020-02-09T15:37:36.990Z</time>
      </trkpt>
      <trkpt lat="45.31638" lon="6.24589">
        <ele>1282.8281892262</ele>
        <time>2020-02-09T15:37:39.001Z</time>
      </trkpt>
      <trkpt lat="45.31638" lon="6.24607">
        <ele>1278</ele>
        <time>2020-02-09T15:37:42.001Z</time>
      </trkpt>
      <trkpt lat="45.31635" lon="6.24619">
        <ele>1276.6290048</ele>
        <time>2020-02-09T15:37:44.001Z</time>
      </trkpt>
      <trkpt lat="45.31627" lon="6.2463">
        <ele>1274.714617672</ele>
        <time>2020-02-09T15:37:46.001Z</time>
      </trkpt>
      <trkpt lat="45.31625" lon="6.24643">
        <ele>1271.6290048</ele>
        <time>2020-02-09T15:37:48.001Z</time>
      </trkpt>
      <trkpt lat="45.3162" lon="6.24657">
        <ele>1267</ele>
        <time>2020-02-09T15:38:06.001Z</time>
      </trkpt>
      <trkpt lat="45.31616" lon="6.2467">
        <ele>1265.6290048</ele>
        <time>2020-02-09T15:38:08.001Z</time>
      </trkpt>
      <trkpt lat="45.31616" lon="6.24684">
        <ele>1262.64</ele>
        <time>2020-02-09T15:38:10.990Z</time>
      </trkpt>
      <trkpt lat="45.3162" lon="6.24697">
        <ele>1261</ele>
        <time>2020-02-09T15:38:14.990Z</time>
      </trkpt>
      <trkpt lat="45.31617" lon="6.2471">
        <ele>1255</ele>
        <time>2020-02-09T15:38:49.001Z</time>
      </trkpt>
      <trkpt lat="45.31623" lon="6.2472">
        <ele>1253.6464625569</ele>
        <time>2020-02-09T15:38:51.990Z</time>
      </trkpt>
      <trkpt lat="45.31628" lon="6.24734">
        <ele>1251</ele>
        <time>2020-02-09T15:38:56.990Z</time>
      </trkpt>
      <trkpt lat="45.3163" lon="6.2475">
        <ele>1247.632676856</ele>
        <time>2020-02-09T15:39:05.001Z</time>
      </trkpt>
      <trkpt lat="45.31632" lon="6.24763">
        <ele>1247</ele>
        <time>2020-02-09T15:39:07.001Z</time>
      </trkpt>
      <trkpt lat="45.31628" lon="6.24776">
        <ele>1246</ele>
        <time>2020-02-09T15:39:13.000Z</time>
      </trkpt>
      <trkpt lat="45.3163" lon="6.24792">
        <ele>1244</ele>
        <time>2020-02-09T15:40:06.001Z</time>
      </trkpt>
      <trkpt lat="45.31621" lon="6.24797">
        <ele>1244</ele>
        <time>2020-02-09T15:40:16.990Z</time>
      </trkpt>
      <trkpt lat="45.31616" lon="6.24808">
        <ele>1242</ele>
        <time>2020-02-09T15:40:21.989Z</time>
      </trkpt>
      <trkpt lat="45.31615" lon="6.24821">
        <ele>1240.7238435635</ele>
        <time>2020-02-09T15:40:25.989Z</time>
      </trkpt>
      <trkpt lat="45.31609" lon="6.24831">
        <ele>1239</ele>
        <time>2020-02-09T15:40:33.999Z</time>
      </trkpt>
      <trkpt lat="45.31605" lon="6.24844">
        <ele>1238</ele>
        <time>2020-02-09T15:40:39.001Z</time>
      </trkpt>
      <trkpt lat="45.31601" lon="6.24856">
        <ele>1237.64</ele>
        <time>2020-02-09T15:40:45.990Z</time>
      </trkpt>
      <trkpt lat="45.31593" lon="6.24863">
        <ele>1237</ele>
        <time>2020-02-09T15:40:52.005Z</time>
      </trkpt>
      <trkpt lat="45.31593" lon="6.24876">
        <ele>1234.7167954819</ele>
        <time>2020-02-09T15:41:15.001Z</time>
      </trkpt>
      <trkpt lat="45.31589" lon="6.24889">
        <ele>1233.6290048</ele>
        <time>2020-02-09T15:41:17.001Z</time>
      </trkpt>
      <trkpt lat="45.31585" lon="6.24903">
        <ele>1231.64</ele>
        <time>2020-02-09T15:41:18.990Z</time>
      </trkpt>
      <trkpt lat="45.31583" lon="6.2492">
        <ele>1230.64</ele>
        <time>2020-02-09T15:41:20.990Z</time>
      </trkpt>
      <trkpt lat="45.31581" lon="6.24935">
        <ele>1227.6300032</ele>
        <time>2020-02-09T15:41:23.000Z</time>
      </trkpt>
      <trkpt lat="45.31578" lon="6.2495">
        <ele>1224.4488533656</ele>
        <time>2020-02-09T15:41:24.991Z</time>
      </trkpt>
      <trkpt lat="45.31571" lon="6.24964">
        <ele>1221.928575347</ele>
        <time>2020-02-09T15:41:26.990Z</time>
      </trkpt>
      <trkpt lat="45.31562" lon="6.24971">
        <ele>1220</ele>
        <time>2020-02-09T15:41:28.990Z</time>
      </trkpt>
      <trkpt lat="45.31557" lon="6.24989">
        <ele>1217.28</ele>
        <time>2020-02-09T15:41:31.990Z</time>
      </trkpt>
      <trkpt lat="45.31559" lon="6.25007">
        <ele>1214.725191511</ele>
        <time>2020-02-09T15:41:33.990Z</time>
      </trkpt>
      <trkpt lat="45.31558" lon="6.25025">
        <ele>1211.64</ele>
        <time>2020-02-09T15:41:35.990Z</time>
      </trkpt>
      <trkpt lat="45.31557" lon="6.25043">
        <ele>1208.6300032</ele>
        <time>2020-02-09T15:41:38.000Z</time>
      </trkpt>
      <trkpt lat="45.31562" lon="6.25055">
        <ele>1205.6420096</ele>
        <time>2020-02-09T15:41:39.988Z</time>
      </trkpt>
      <trkpt lat="45.31571" lon="6.25061">
        <ele>1203.722307556</ele>
        <time>2020-02-09T15:41:41.991Z</time>
      </trkpt>
      <trkpt lat="45.31579" lon="6.25054">
        <ele>1200.6420096</ele>
        <time>2020-02-09T15:41:55.988Z</time>
      </trkpt>
      <trkpt lat="45.31588" lon="6.25057">
        <ele>1199</ele>
        <time>2020-02-09T15:42:09.000Z</time>
      </trkpt>
      <trkpt lat="45.3159" lon="6.25044">
        <ele>1199</ele>
        <time>2020-02-09T15:42:48.001Z</time>
      </trkpt>
      <trkpt lat="45.31596" lon="6.25055">
        <ele>1199</ele>
        <time>2020-02-09T15:42:58.001Z</time>
      </trkpt>
      <trkpt lat="45.31604" lon="6.25048">
        <ele>1199</ele>
        <time>2020-02-09T15:43:08.001Z</time>
      </trkpt>
      <trkpt lat="45.31612" lon="6.25053">
        <ele>1197.6300032</ele>
        <time>2020-02-09T15:43:19.000Z</time>
      </trkpt>
      <trkpt lat="45.31615" lon="6.25068">
        <ele>1197</ele>
        <time>2020-02-09T15:43:30.001Z</time>
      </trkpt>
      <trkpt lat="45.31605" lon="6.25064">
        <ele>1197</ele>
        <time>2020-02-09T15:43:45.001Z</time>
      </trkpt>
      <trkpt lat="45.31607" lon="6.25049">
        <ele>1197.2725123114</ele>
        <time>2020-02-09T15:43:57.987Z</time>
      </trkpt>
      <trkpt lat="45.31611" lon="6.25037">
        <ele>1200</ele>
        <time>2020-02-09T15:44:10.990Z</time>
      </trkpt>
      <trkpt lat="45.31611" lon="6.25023">
        <ele>1200</ele>
        <time>2020-02-09T15:44:30.001Z</time>
      </trkpt>
      <trkpt lat="45.31619" lon="6.25031">
        <ele>1200</ele>
        <time>2020-02-09T15:44:59.990Z</time>
      </trkpt>
      <trkpt lat="45.3162" lon="6.25044">
        <ele>1199</ele>
        <time>2020-02-09T15:45:08.990Z</time>
      </trkpt>
      <trkpt lat="45.3162" lon="6.2506">
        <ele>1198</ele>
        <time>2020-02-09T15:45:16.000Z</time>
      </trkpt>
      <trkpt lat="45.31616" lon="6.25072">
        <ele>1196</ele>
        <time>2020-02-09T15:45:25.098Z</time>
      </trkpt>
      <trkpt lat="45.31617" lon="6.25071">
        <ele>1065.5</ele>
        <time>2020-02-09T15:46:31.000Z</time>
      </trkpt>
    </trkseg>
  </trk>
</gpx>